Pastebin launched a little side project called VERYVIRAL.com, check it out ;-) Want more features on Pastebin? Sign Up, it's FREE!
Guest

Untitled

By: a guest on Jun 18th, 2011  |  syntax: None  |  size: 111.37 KB  |  views: 78  |  expires: Never
download  |  raw  |  embed  |  report abuse  |  print
Text below is selected. Please press Ctrl+C to copy to your clipboard. (⌘+C on Mac)
  1. 14:27:38 T:3080 M:2051923968  NOTICE: -----------------------------------------------------------------------
  2. 14:27:38 T:3080 M:2051895296  NOTICE: Starting XBMC, Platform: Windows 7, 32-bit Service Pack 1 build 7601. Built on Jun 18 2011 (Git:20110618-19e8cb6, compiler 1600)
  3. 14:27:38 T:3080 M:2051895296  NOTICE: Intel(R) Core(TM)2 CPU          6700  @ 2.66GHz
  4. 14:27:38 T:3080 M:2051895296  NOTICE: Desktop Resolution: 1680x1050 32Bit at 59Hz
  5. 14:27:38 T:3080 M:2051895296  NOTICE: Running with administrator rights
  6. 14:27:38 T:3080 M:2051874816  NOTICE: Aero is enabled
  7. 14:27:38 T:3080 M:2051874816  NOTICE: special://xbmc/ is mapped to: C:\Program Files\XBMC
  8. 14:27:38 T:3080 M:2051874816  NOTICE: special://xbmcbin/ is mapped to: C:\Program Files\XBMC
  9. 14:27:38 T:3080 M:2051874816  NOTICE: special://masterprofile/ is mapped to: C:\Users\Eddie\AppData\Roaming\XBMC\userdata
  10. 14:27:38 T:3080 M:2051874816  NOTICE: special://home/ is mapped to: C:\Users\Eddie\AppData\Roaming\XBMC
  11. 14:27:38 T:3080 M:2051874816  NOTICE: special://temp/ is mapped to: C:\Users\Eddie\AppData\Roaming\XBMC\cache
  12. 14:27:38 T:3080 M:2051874816  NOTICE: The executable running is: C:\Program Files\XBMC\XBMC.exe
  13. 14:27:38 T:3080 M:2051874816  NOTICE: Log File is located: C:\Users\Eddie\AppData\Roaming\XBMC\xbmc.log
  14. 14:27:38 T:3080 M:2051874816  NOTICE: -----------------------------------------------------------------------
  15. 14:27:38 T:3080 M:2051850240  NOTICE: Setup SDL
  16. 14:27:38 T:3080 M:2051526656  NOTICE: Found screen: Generic PnP Monitor on NVIDIA GeForce GT 240, adapter 0.
  17. 14:27:38 T:3080 M:2051526656  NOTICE: Found screen: Generic PnP Monitor on NVIDIA GeForce GT 240, adapter 1.
  18. 14:27:38 T:3080 M:2051522560  NOTICE: Primary mode: 1680x1050 @ 59.94 - Full Screen
  19. 14:27:38 T:3080 M:2051522560  NOTICE: Secondary mode: 1920x1080 @ 60.00 - Full Screen #2
  20. 14:27:38 T:3080 M:2050117632  NOTICE: Additional mode: 640x480 @ 60.00 - Full Screen #2
  21. 14:27:38 T:3080 M:2049953792  NOTICE: Additional mode: 640x480 @ 59.94 - Full Screen #2
  22. 14:27:38 T:3080 M:2049921024  NOTICE: Additional mode: 640x480 @ 72.00 - Full Screen #2
  23. 14:27:38 T:3080 M:2049945600  NOTICE: Additional mode: 640x480 @ 75.00 - Full Screen #2
  24. 14:27:38 T:3080 M:2049884160  NOTICE: Additional mode: 720x480 @ 59.94 - Full Screen #2
  25. 14:27:38 T:3080 M:2049884160  NOTICE: Additional mode: 720x480 @ 60.00 - Full Screen #2
  26. 14:27:38 T:3080 M:2049884160  NOTICE: Additional mode: 720x576 @ 50.00 - Full Screen #2
  27. 14:27:38 T:3080 M:2049822720  NOTICE: Additional mode: 800x600 @ 60.00 - Full Screen #2
  28. 14:27:38 T:3080 M:2049859584  NOTICE: Additional mode: 800x600 @ 72.00 - Full Screen #2
  29. 14:27:38 T:3080 M:2049785856  NOTICE: Additional mode: 800x600 @ 75.00 - Full Screen #2
  30. 14:27:38 T:3080 M:2049769472  NOTICE: Additional mode: 1024x768 @ 60.00 - Full Screen #2
  31. 14:27:38 T:3080 M:2049744896  NOTICE: Additional mode: 1024x768 @ 70.00 - Full Screen #2
  32. 14:27:38 T:3080 M:2049695744  NOTICE: Additional mode: 1024x768 @ 75.00 - Full Screen #2
  33. 14:27:38 T:3080 M:2049646592  NOTICE: Additional mode: 1152x864 @ 75.00 - Full Screen #2
  34. 14:27:38 T:3080 M:2049605632  NOTICE: Additional mode: 1176x664 @ 50.00 - Full Screen #2
  35. 14:27:38 T:3080 M:2049544192  NOTICE: Previous line repeats 2 times.
  36. 14:27:38 T:3080 M:2049544192  NOTICE: Additional mode: 1176x664 @ 60.00 - Full Screen #2
  37. 14:27:38 T:3080 M:2049544192  NOTICE: Previous line repeats 2 times.
  38. 14:27:38 T:3080 M:2049544192  NOTICE: Additional mode: 1176x664 @ 59.94 - Full Screen #2
  39. 14:27:38 T:3080 M:2049568768  NOTICE: Previous line repeats 2 times.
  40. 14:27:38 T:3080 M:2049568768  NOTICE: Additional mode: 1280x720 @ 60.00 - Full Screen #2
  41. 14:27:38 T:3080 M:2049544192  NOTICE: Additional mode: 1280x720 @ 59.94 - Full Screen #2
  42. 14:27:38 T:3080 M:2049544192  NOTICE: Additional mode: 1280x720 @ 50.00 - Full Screen #2
  43. 14:27:38 T:3080 M:2049421312  NOTICE: Additional mode: 1280x768 @ 60.00 - Full Screen #2
  44. 14:27:38 T:3080 M:2049462272  NOTICE: Previous line repeats 2 times.
  45. 14:27:38 T:3080 M:2049462272  NOTICE: Additional mode: 1280x800 @ 60.00 - Full Screen #2
  46. 14:27:38 T:3080 M:2049449984  NOTICE: Additional mode: 1280x960 @ 60.00 - Full Screen #2
  47. 14:27:38 T:3080 M:2049454080  NOTICE: Additional mode: 1280x1024 @ 60.00 - Full Screen #2
  48. 14:27:38 T:3080 M:2049454080  NOTICE: Additional mode: 1280x1024 @ 75.00 - Full Screen #2
  49. 14:27:38 T:3080 M:2049454080  NOTICE: Additional mode: 1360x768 @ 60.00 - Full Screen #2
  50. 14:27:38 T:3080 M:2049454080  NOTICE: Additional mode: 1366x768 @ 60.00 - Full Screen #2
  51. 14:27:38 T:3080 M:2049454080  NOTICE: Previous line repeats 2 times.
  52. 14:27:38 T:3080 M:2049454080  NOTICE: Additional mode: 1366x768 @ 75.00 - Full Screen #2
  53. 14:27:38 T:3080 M:2049454080  NOTICE: Previous line repeats 2 times.
  54. 14:27:38 T:3080 M:2049454080  NOTICE: Additional mode: 1600x900 @ 59.94 - Full Screen #2
  55. 14:27:38 T:3080 M:2049417216  NOTICE: Additional mode: 1600x900 @ 60.00 - Full Screen #2
  56. 14:27:38 T:3080 M:2049417216  NOTICE: Additional mode: 1600x900 @ 59.94 - Full Screen #2
  57. 14:27:38 T:3080 M:2049421312  NOTICE: Additional mode: 1600x900 @ 60.00 - Full Screen #2
  58. 14:27:38 T:3080 M:2049421312  NOTICE: Additional mode: 1600x900 @ 59.94 - Full Screen #2
  59. 14:27:38 T:3080 M:2049421312  NOTICE: Additional mode: 1600x900 @ 60.00 - Full Screen #2
  60. 14:27:38 T:3080 M:2049421312  NOTICE: Additional mode: 1600x1024 @ 59.94 - Full Screen #2
  61. 14:27:38 T:3080 M:2049421312  NOTICE: Additional mode: 1600x1024 @ 60.00 - Full Screen #2
  62. 14:27:38 T:3080 M:2049421312  NOTICE: Additional mode: 1600x1024 @ 59.94 - Full Screen #2
  63. 14:27:38 T:3080 M:2049421312  NOTICE: Additional mode: 1600x1024 @ 60.00 - Full Screen #2
  64. 14:27:38 T:3080 M:2049421312  NOTICE: Additional mode: 1600x1024 @ 59.94 - Full Screen #2
  65. 14:27:38 T:3080 M:2049421312  NOTICE: Additional mode: 1600x1024 @ 60.00 - Full Screen #2
  66. 14:27:38 T:3080 M:2049421312  NOTICE: Additional mode: 1680x1050 @ 59.94 - Full Screen #2
  67. 14:27:38 T:3080 M:2049437696  NOTICE: Additional mode: 1680x1050 @ 60.00 - Full Screen #2
  68. 14:27:38 T:3080 M:2049421312  NOTICE: Additional mode: 1768x992 @ 25.00i - Full Screen #2
  69. 14:27:38 T:3080 M:2049421312  NOTICE: Previous line repeats 2 times.
  70. 14:27:38 T:3080 M:2049421312  NOTICE: Additional mode: 1768x992 @ 30.00i - Full Screen #2
  71. 14:27:38 T:3080 M:2049421312  NOTICE: Previous line repeats 2 times.
  72. 14:27:38 T:3080 M:2049421312  NOTICE: Additional mode: 1768x992 @ 29.97i - Full Screen #2
  73. 14:27:38 T:3080 M:2049421312  NOTICE: Previous line repeats 2 times.
  74. 14:27:38 T:3080 M:2049421312  NOTICE: Additional mode: 1920x1080 @ 60.00 - Full Screen #2
  75. 14:27:38 T:3080 M:2049421312  NOTICE: Additional mode: 1920x1080 @ 59.94 - Full Screen #2
  76. 14:27:38 T:3080 M:2049421312  NOTICE: Additional mode: 1920x1080 @ 30.00i - Full Screen #2
  77. 14:27:38 T:3080 M:2049421312  NOTICE: Additional mode: 1920x1080 @ 29.97i - Full Screen #2
  78. 14:27:38 T:3080 M:2049421312  NOTICE: Additional mode: 1920x1080 @ 25.00i - Full Screen #2
  79. 14:27:38 T:3080 M:2049433600  NOTICE: Additional mode: 1920x1080 @ 50.00 - Full Screen #2
  80. 14:27:38 T:3080 M:2049421312  NOTICE: Additional mode: 1920x1080 @ 24.00 - Full Screen #2
  81. 14:27:38 T:3080 M:2049421312  NOTICE: Additional mode: 1920x1080 @ 23.98 - Full Screen #2
  82. 14:27:38 T:3080 M:2049421312  NOTICE: Additional mode: 1920x1080 @ 25.00 - Full Screen #2
  83. 14:27:38 T:3080 M:2049421312  NOTICE: Additional mode: 1920x1080 @ 30.00 - Full Screen #2
  84. 14:27:38 T:3080 M:2049421312  NOTICE: Additional mode: 1920x1080 @ 29.97 - Full Screen #2
  85. 14:27:38 T:3080 M:2050093056  NOTICE: Additional mode: 1440x900 @ 60.00 - Full Screen #2
  86. 14:27:38 T:3080 M:2050162688  NOTICE: Additional mode: 1440x900 @ 75.00 - Full Screen #2
  87. 14:27:38 T:3080 M:2050539520  NOTICE: Additional mode: 1680x1050 @ 59.94 - Full Screen
  88. 14:27:38 T:3080 M:2050449408  NOTICE: Additional mode: 1680x1050 @ 60.00 - Full Screen
  89. 14:27:38 T:3080 M:2050158592  NOTICE: Additional mode: 640x480 @ 59.94 - Full Screen
  90. 14:27:38 T:3080 M:2050031616  NOTICE: Additional mode: 640x480 @ 60.00 - Full Screen
  91. 14:27:38 T:3080 M:2049892352  NOTICE: Additional mode: 640x480 @ 59.94 - Full Screen
  92. 14:27:38 T:3080 M:2049753088  NOTICE: Additional mode: 640x480 @ 60.00 - Full Screen
  93. 14:27:38 T:3080 M:2049613824  NOTICE: Additional mode: 640x480 @ 59.94 - Full Screen
  94. 14:27:38 T:3080 M:2049486848  NOTICE: Additional mode: 640x480 @ 60.00 - Full Screen
  95. 14:27:38 T:3080 M:2049347584  NOTICE: Additional mode: 720x480 @ 59.94 - Full Screen
  96. 14:27:38 T:3080 M:2049306624  NOTICE: Additional mode: 720x480 @ 60.00 - Full Screen
  97. 14:27:38 T:3080 M:2049376256  NOTICE: Additional mode: 720x480 @ 59.94 - Full Screen
  98. 14:27:38 T:3080 M:2049445888  NOTICE: Additional mode: 720x480 @ 60.00 - Full Screen
  99. 14:27:38 T:3080 M:2049515520  NOTICE: Additional mode: 720x480 @ 59.94 - Full Screen
  100. 14:27:38 T:3080 M:2049548288  NOTICE: Additional mode: 720x576 @ 59.94 - Full Screen
  101. 14:27:38 T:3080 M:2049617920  NOTICE: Additional mode: 720x576 @ 60.00 - Full Screen
  102. 14:27:38 T:3080 M:2049687552  NOTICE: Additional mode: 720x576 @ 59.94 - Full Screen
  103. 14:27:38 T:3080 M:2049732608  NOTICE: Additional mode: 720x576 @ 60.00 - Full Screen
  104. 14:27:38 T:3080 M:2049802240  NOTICE: Additional mode: 720x576 @ 59.94 - Full Screen
  105. 14:27:38 T:3080 M:2049871872  NOTICE: Additional mode: 720x576 @ 60.00 - Full Screen
  106. 14:27:38 T:3080 M:2049941504  NOTICE: Additional mode: 800x600 @ 59.94 - Full Screen
  107. 14:27:38 T:3080 M:2050011136  NOTICE: Additional mode: 800x600 @ 60.00 - Full Screen
  108. 14:27:38 T:3080 M:2049585152  NOTICE: Additional mode: 800x600 @ 59.94 - Full Screen
  109. 14:27:38 T:3080 M:2049101824  NOTICE: Additional mode: 800x600 @ 60.00 - Full Screen
  110. 14:27:38 T:3080 M:2049171456  NOTICE: Additional mode: 800x600 @ 59.94 - Full Screen
  111. 14:27:38 T:3080 M:2048221184  NOTICE: Additional mode: 800x600 @ 60.00 - Full Screen
  112. 14:27:38 T:3080 M:2048290816  NOTICE: Additional mode: 1024x768 @ 59.94 - Full Screen
  113. 14:27:38 T:3080 M:2048360448  NOTICE: Additional mode: 1024x768 @ 60.00 - Full Screen
  114. 14:27:38 T:3080 M:2048049152  NOTICE: Additional mode: 1024x768 @ 59.94 - Full Screen
  115. 14:27:38 T:3080 M:2048118784  NOTICE: Additional mode: 1024x768 @ 60.00 - Full Screen
  116. 14:27:38 T:3080 M:2048188416  NOTICE: Additional mode: 1024x768 @ 59.94 - Full Screen
  117. 14:27:38 T:3080 M:2048458752  NOTICE: Additional mode: 1024x768 @ 60.00 - Full Screen
  118. 14:27:38 T:3080 M:2048528384  NOTICE: Additional mode: 1152x864 @ 59.94 - Full Screen
  119. 14:27:38 T:3080 M:2048577536  NOTICE: Additional mode: 1152x864 @ 60.00 - Full Screen
  120. 14:27:38 T:3080 M:2048647168  NOTICE: Additional mode: 1152x864 @ 59.94 - Full Screen
  121. 14:27:38 T:3080 M:2048757760  NOTICE: Additional mode: 1152x864 @ 60.00 - Full Screen
  122. 14:27:38 T:3080 M:2049146880  NOTICE: Additional mode: 1152x864 @ 59.94 - Full Screen
  123. 14:27:38 T:3080 M:2049077248  NOTICE: Additional mode: 1152x864 @ 60.00 - Full Screen
  124. 14:27:38 T:3080 M:2049077248  NOTICE: Additional mode: 1280x720 @ 59.94 - Full Screen
  125. 14:27:38 T:3080 M:2049077248  NOTICE: Additional mode: 1280x720 @ 60.00 - Full Screen
  126. 14:27:38 T:3080 M:2049077248  NOTICE: Additional mode: 1280x720 @ 59.94 - Full Screen
  127. 14:27:38 T:3080 M:2049077248  NOTICE: Additional mode: 1280x720 @ 60.00 - Full Screen
  128. 14:27:38 T:3080 M:2049077248  NOTICE: Additional mode: 1280x720 @ 59.94 - Full Screen
  129. 14:27:38 T:3080 M:2049077248  NOTICE: Additional mode: 1280x720 @ 60.00 - Full Screen
  130. 14:27:38 T:3080 M:2049077248  NOTICE: Additional mode: 1280x768 @ 59.94 - Full Screen
  131. 14:27:38 T:3080 M:2049077248  NOTICE: Additional mode: 1280x768 @ 60.00 - Full Screen
  132. 14:27:38 T:3080 M:2049077248  NOTICE: Additional mode: 1280x768 @ 59.94 - Full Screen
  133. 14:27:38 T:3080 M:2049077248  NOTICE: Additional mode: 1280x768 @ 60.00 - Full Screen
  134. 14:27:38 T:3080 M:2049077248  NOTICE: Additional mode: 1280x768 @ 59.94 - Full Screen
  135. 14:27:38 T:3080 M:2049077248  NOTICE: Additional mode: 1280x768 @ 60.00 - Full Screen
  136. 14:27:38 T:3080 M:2049077248  NOTICE: Additional mode: 1280x800 @ 59.94 - Full Screen
  137. 14:27:38 T:3080 M:2049077248  NOTICE: Additional mode: 1280x800 @ 60.00 - Full Screen
  138. 14:27:38 T:3080 M:2049077248  NOTICE: Additional mode: 1280x800 @ 59.94 - Full Screen
  139. 14:27:38 T:3080 M:2049077248  NOTICE: Additional mode: 1280x800 @ 60.00 - Full Screen
  140. 14:27:38 T:3080 M:2049077248  NOTICE: Additional mode: 1280x800 @ 59.94 - Full Screen
  141. 14:27:38 T:3080 M:2049077248  NOTICE: Additional mode: 1280x800 @ 60.00 - Full Screen
  142. 14:27:38 T:3080 M:2049077248  NOTICE: Additional mode: 1280x960 @ 59.94 - Full Screen
  143. 14:27:38 T:3080 M:2049077248  NOTICE: Additional mode: 1280x960 @ 60.00 - Full Screen
  144. 14:27:38 T:3080 M:2049077248  NOTICE: Additional mode: 1280x960 @ 59.94 - Full Screen
  145. 14:27:38 T:3080 M:2049077248  NOTICE: Additional mode: 1280x960 @ 60.00 - Full Screen
  146. 14:27:38 T:3080 M:2049077248  NOTICE: Additional mode: 1280x960 @ 59.94 - Full Screen
  147. 14:27:38 T:3080 M:2049077248  NOTICE: Additional mode: 1280x960 @ 60.00 - Full Screen
  148. 14:27:38 T:3080 M:2049077248  NOTICE: Additional mode: 1280x1024 @ 59.94 - Full Screen
  149. 14:27:38 T:3080 M:2049077248  NOTICE: Additional mode: 1280x1024 @ 60.00 - Full Screen
  150. 14:27:38 T:3080 M:2049077248  NOTICE: Additional mode: 1280x1024 @ 59.94 - Full Screen
  151. 14:27:38 T:3080 M:2049077248  NOTICE: Additional mode: 1280x1024 @ 60.00 - Full Screen
  152. 14:27:38 T:3080 M:2049077248  NOTICE: Additional mode: 1280x1024 @ 59.94 - Full Screen
  153. 14:27:38 T:3080 M:2049077248  NOTICE: Additional mode: 1280x1024 @ 60.00 - Full Screen
  154. 14:27:38 T:3080 M:2049077248  NOTICE: Additional mode: 1360x768 @ 59.94 - Full Screen
  155. 14:27:38 T:3080 M:2049077248  NOTICE: Additional mode: 1360x768 @ 60.00 - Full Screen
  156. 14:27:38 T:3080 M:2049077248  NOTICE: Additional mode: 1360x768 @ 59.94 - Full Screen
  157. 14:27:38 T:3080 M:2049077248  NOTICE: Additional mode: 1360x768 @ 60.00 - Full Screen
  158. 14:27:38 T:3080 M:2049077248  NOTICE: Additional mode: 1360x768 @ 59.94 - Full Screen
  159. 14:27:38 T:3080 M:2049077248  NOTICE: Additional mode: 1360x768 @ 60.00 - Full Screen
  160. 14:27:38 T:3080 M:2049077248  NOTICE: Additional mode: 1366x768 @ 59.94 - Full Screen
  161. 14:27:38 T:3080 M:2049077248  NOTICE: Additional mode: 1366x768 @ 60.00 - Full Screen
  162. 14:27:38 T:3080 M:2049077248  NOTICE: Additional mode: 1366x768 @ 59.94 - Full Screen
  163. 14:27:38 T:3080 M:2049077248  NOTICE: Additional mode: 1366x768 @ 60.00 - Full Screen
  164. 14:27:38 T:3080 M:2049077248  NOTICE: Additional mode: 1366x768 @ 59.94 - Full Screen
  165. 14:27:38 T:3080 M:2049077248  NOTICE: Additional mode: 1366x768 @ 60.00 - Full Screen
  166. 14:27:38 T:3080 M:2049077248  NOTICE: Additional mode: 1600x900 @ 59.94 - Full Screen
  167. 14:27:38 T:3080 M:2049077248  NOTICE: Additional mode: 1600x900 @ 60.00 - Full Screen
  168. 14:27:38 T:3080 M:2049077248  NOTICE: Additional mode: 1600x900 @ 59.94 - Full Screen
  169. 14:27:38 T:3080 M:2049077248  NOTICE: Additional mode: 1600x900 @ 60.00 - Full Screen
  170. 14:27:38 T:3080 M:2049077248  NOTICE: Additional mode: 1600x900 @ 59.94 - Full Screen
  171. 14:27:38 T:3080 M:2049077248  NOTICE: Additional mode: 1600x900 @ 60.00 - Full Screen
  172. 14:27:38 T:3080 M:2049077248  NOTICE: Additional mode: 1600x1024 @ 59.94 - Full Screen
  173. 14:27:38 T:3080 M:2049077248  NOTICE: Additional mode: 1600x1024 @ 60.00 - Full Screen
  174. 14:27:38 T:3080 M:2049077248  NOTICE: Additional mode: 1600x1024 @ 59.94 - Full Screen
  175. 14:27:38 T:3080 M:2049077248  NOTICE: Additional mode: 1600x1024 @ 60.00 - Full Screen
  176. 14:27:38 T:3080 M:2049077248  NOTICE: Additional mode: 1600x1024 @ 59.94 - Full Screen
  177. 14:27:38 T:3080 M:2049077248  NOTICE: Additional mode: 1600x1024 @ 60.00 - Full Screen
  178. 14:27:38 T:3080 M:2049077248  NOTICE: Additional mode: 1440x900 @ 59.94 - Full Screen
  179. 14:27:38 T:3080 M:2049077248  NOTICE: Additional mode: 1440x900 @ 60.00 - Full Screen
  180. 14:27:38 T:3080 M:2049077248  NOTICE: Additional mode: 1440x900 @ 59.94 - Full Screen
  181. 14:27:38 T:3080 M:2049077248  NOTICE: Additional mode: 1440x900 @ 60.00 - Full Screen
  182. 14:27:38 T:3080 M:2049077248  NOTICE: Additional mode: 1440x900 @ 59.94 - Full Screen
  183. 14:27:38 T:3080 M:2049077248  NOTICE: Additional mode: 1440x900 @ 60.00 - Full Screen
  184. 14:27:38 T:3080 M:2049605632  NOTICE: load settings...
  185. 14:27:38 T:3080 M:2049511424  NOTICE: special://profile/ is mapped to: special://masterprofile/
  186. 14:27:38 T:3080 M:2049507328  NOTICE: loading special://masterprofile/guisettings.xml
  187. 14:27:38 T:3080 M:2049331200  NOTICE: Getting hardware information now...
  188. 14:27:38 T:3080 M:2049331200  NOTICE: Checking resolution 13
  189. 14:27:38 T:3080 M:2049323008  NOTICE: Loading player core factory settings from special://xbmc/system/playercorefactory.xml.
  190. 14:27:38 T:3080 M:2049306624  NOTICE: Loaded playercorefactory configuration
  191. 14:27:38 T:3080 M:2049306624  NOTICE: Loading player core factory settings from special://masterprofile/playercorefactory.xml.
  192. 14:27:38 T:3080 M:2049306624  NOTICE: special://masterprofile/playercorefactory.xml does not exist. Skipping.
  193. 14:27:38 T:3080 M:2049298432  NOTICE: No settings file to load to load (special://xbmc/system/advancedsettings.xml)
  194. 14:27:38 T:3080 M:2049298432  NOTICE: No settings file to load to load (special://masterprofile/advancedsettings.xml)
  195. 14:27:38 T:3080 M:2049298432  NOTICE: Default DVD Player: dvdplayer
  196. 14:27:38 T:3080 M:2049298432  NOTICE: Default Video Player: dvdplayer
  197. 14:27:38 T:3080 M:2049298432  NOTICE: Default Audio Player: paplayer
  198. 14:27:38 T:3080 M:2049298432  NOTICE: Log level changed to 2
  199. 14:27:38 T:3080 M:2049298432  NOTICE: Enabled debug logging due to GUI setting (2)
  200. 14:27:38 T:3080 M:2049298432  NOTICE: Loading media sources from special://masterprofile/sources.xml
  201. 14:27:38 T:3080 M:2049261568    INFO: creating subdirectories
  202. 14:27:38 T:3080 M:2049261568    INFO: userdata folder: special://masterprofile/
  203. 14:27:38 T:3080 M:2049261568    INFO: recording folder:
  204. 14:27:38 T:3080 M:2049261568    INFO: screenshots folder:
  205. 14:27:38 T:3080 M:2049257472    INFO: thumbnails folder: special://masterprofile/Thumbnails
  206. 14:27:38 T:3080 M:2049253376    INFO: load language info file: special://xbmc/language/English/langinfo.xml
  207. 14:27:38 T:3080 M:2049228800   DEBUG: trying to set locale to eng_gbr
  208. 14:27:38 T:3080 M:2048516096    INFO: global locale set to English_United Kingdom.1252
  209. 14:27:38 T:3080 M:2048516096    INFO: load language file:special://xbmc/language/English/strings.xml
  210. 14:27:38 T:3080 M:2048376832   DEBUG: SECTION:LoadDLL(special://xbmcbin/system/cpluff.dll)
  211. 14:27:38 T:3080 M:2046844928   DEBUG: ADDON: cpluff: 'Plug-in xbmc.json has been installed.'
  212. 14:27:38 T:3080 M:2046844928   DEBUG: ADDON: cpluff: 'Plug-in script.xbmc.subtitles has been installed.'
  213. 14:27:38 T:3080 M:2046844928   DEBUG: ADDON: cpluff: 'Plug-in metadata.albums.allmusic.com has been installed.'
  214. 14:27:38 T:3080 M:2046844928   DEBUG: ADDON: cpluff: 'Plug-in webinterface.default has been installed.'
  215. 14:27:38 T:3080 M:2046844928   DEBUG: ADDON: cpluff: 'Plug-in repository.xbmc.org has been installed.'
  216. 14:27:38 T:3080 M:2046844928   DEBUG: ADDON: cpluff: 'Plug-in webinterface.debug has been installed.'
  217. 14:27:38 T:3080 M:2046844928   DEBUG: ADDON: cpluff: 'Plug-in screensaver.xbmc.builtin.black has been installed.'
  218. 14:27:38 T:3080 M:2046844928   DEBUG: ADDON: cpluff: 'Plug-in screensaver.rsxs.euphoria has been installed.'
  219. 14:27:38 T:3080 M:2046844928   DEBUG: ADDON: cpluff: 'Plug-in plugin.video.iplayer has been installed.'
  220. 14:27:38 T:3080 M:2046844928   DEBUG: ADDON: cpluff: 'Plug-in repo.hitcher has been installed.'
  221. 14:27:38 T:3080 M:2046832640   DEBUG: ADDON: cpluff: 'Plug-in plugin.video.zapiks has been installed.'
  222. 14:27:38 T:3080 M:2046832640   DEBUG: ADDON: cpluff: 'Plug-in script.randomitems has been installed.'
  223. 14:27:38 T:3080 M:2046832640   DEBUG: ADDON: cpluff: 'Plug-in visualization.projectm has been installed.'
  224. 14:27:38 T:3080 M:2046832640   DEBUG: ADDON: cpluff: 'Plug-in script.module.simplejson has been installed.'
  225. 14:27:38 T:3080 M:2046832640   DEBUG: ADDON: cpluff: 'Plug-in screensaver.xbmc.builtin.dim has been installed.'
  226. 14:27:38 T:3080 M:2046832640   DEBUG: ADDON: cpluff: 'Plug-in script.favourites has been installed.'
  227. 14:27:38 T:3080 M:2046832640   DEBUG: ADDON: cpluff: 'Plug-in metadata.themoviedb.org has been installed.'
  228. 14:27:38 T:3080 M:2046832640   DEBUG: ADDON: cpluff: 'Plug-in metadata.artists.allmusic.com has been installed.'
  229. 14:27:38 T:3080 M:2046832640   DEBUG: ADDON: cpluff: 'Plug-in xbmc.metadata has been installed.'
  230. 14:27:38 T:3080 M:2046832640   DEBUG: ADDON: cpluff: 'Plug-in skin.confluence has been installed.'
  231. 14:27:38 T:3080 M:2046832640   DEBUG: ADDON: cpluff: 'Plug-in plugin.program.repo.installer has been installed.'
  232. 14:27:38 T:3080 M:2046832640   DEBUG: ADDON: cpluff: 'Plug-in script.globalsearch has been installed.'
  233. 14:27:38 T:3080 M:2046820352   DEBUG: ADDON: cpluff: 'Plug-in metadata.artists.last.fm has been installed.'
  234. 14:27:38 T:3080 M:2046820352   DEBUG: ADDON: cpluff: 'Plug-in visualization.glspectrum has been installed.'
  235. 14:27:38 T:3080 M:2046820352   DEBUG: ADDON: cpluff: 'Plug-in skin.neon.svn has been installed.'
  236. 14:27:38 T:3080 M:2046820352   DEBUG: ADDON: cpluff: 'Plug-in script.tvtunes has been installed.'
  237. 14:27:38 T:3080 M:2046820352   DEBUG: ADDON: cpluff: 'Plug-in script.module.beautifulsoup has been installed.'
  238. 14:27:38 T:3080 M:2046820352   DEBUG: ADDON: cpluff: 'Plug-in xbmc.gui has been installed.'
  239. 14:27:38 T:3080 M:2046820352   DEBUG: ADDON: cpluff: 'Plug-in visualization.milkdrop has been installed.'
  240. 14:27:38 T:3080 M:2046820352   DEBUG: ADDON: cpluff: 'Plug-in script.module.pil has been installed.'
  241. 14:27:38 T:3080 M:2046820352   DEBUG: ADDON: cpluff: 'Plug-in visualization.dxspectrum has been installed.'
  242. 14:27:38 T:3080 M:2046820352   DEBUG: ADDON: cpluff: 'Plug-in script.logo-downloader has been installed.'
  243. 14:27:38 T:3080 M:2046820352   DEBUG: ADDON: cpluff: 'Plug-in xbmc.core has been installed.'
  244. 14:27:38 T:3080 M:2046820352   DEBUG: ADDON: cpluff: 'Plug-in metadata.common.impa.com has been installed.'
  245. 14:27:38 T:3080 M:2046820352   DEBUG: ADDON: cpluff: 'Plug-in plugin.video.youtube has been installed.'
  246. 14:27:38 T:3080 M:2046820352   DEBUG: ADDON: cpluff: 'Plug-in metadata.albums.last.fm has been installed.'
  247. 14:27:38 T:3080 M:2046820352   DEBUG: ADDON: cpluff: 'Plug-in metadata.albums.freebase.com has been installed.'
  248. 14:27:38 T:3080 M:2046820352   DEBUG: ADDON: cpluff: 'Plug-in weather.weatherplus has been installed.'
  249. 14:27:38 T:3080 M:2046820352   DEBUG: ADDON: cpluff: 'Plug-in skin.pm3-hd has been installed.'
  250. 14:27:38 T:3080 M:2046820352   DEBUG: ADDON: cpluff: 'Plug-in screensaver.xbmc.builtin.slideshow has been installed.'
  251. 14:27:38 T:3080 M:2046820352   DEBUG: ADDON: cpluff: 'Plug-in repository.googlecode.xbmc-addons has been installed.'
  252. 14:27:38 T:3080 M:2046820352   DEBUG: ADDON: cpluff: 'Plug-in script.tvrage.com has been installed.'
  253. 14:27:38 T:3080 M:2046820352   DEBUG: ADDON: cpluff: 'Plug-in metadata.common.movieposterdb.com has been installed.'
  254. 14:27:38 T:3080 M:2046820352   DEBUG: ADDON: cpluff: 'Plug-in metadata.common.htbackdrops.com has been installed.'
  255. 14:27:38 T:3080 M:2046820352   DEBUG: ADDON: cpluff: 'Plug-in metadata.imdb.com has been installed.'
  256. 14:27:38 T:3080 M:2046820352   DEBUG: ADDON: cpluff: 'Plug-in metadata.common.allmusic.com has been installed.'
  257. 14:27:38 T:3080 M:2046808064   DEBUG: ADDON: cpluff: 'Plug-in metadata.tvdb.com has been installed.'
  258. 14:27:38 T:3080 M:2046808064   DEBUG: ADDON: cpluff: 'Plug-in weather.xbmc.builtin has been installed.'
  259. 14:27:38 T:3080 M:2046808064   DEBUG: ADDON: cpluff: 'Plug-in repository.passion.xbmc.org has been installed.'
  260. 14:27:38 T:3080 M:2046808064   DEBUG: ADDON: cpluff: 'Plug-in metadata.common.last.fm has been installed.'
  261. 14:27:38 T:3080 M:2046808064   DEBUG: ADDON: cpluff: 'Plug-in metadata.common.themoviedb.org has been installed.'
  262. 14:27:38 T:3080 M:2046808064   DEBUG: ADDON: cpluff: 'Plug-in xbmc.python has been installed.'
  263. 14:27:38 T:3080 M:2046808064   DEBUG: ADDON: cpluff: 'Plug-in script.tv.show.next.aired has been installed.'
  264. 14:27:38 T:3080 M:2046808064   DEBUG: ADDON: cpluff: 'Plug-in metadata.common.imdb.com has been installed.'
  265. 14:27:38 T:3080 M:2046808064   DEBUG: ADDON: cpluff: 'Plug-in metadata.artists.freebase.com has been installed.'
  266. 14:27:38 T:3080 M:2046808064   DEBUG: ADDON: cpluff: 'Plug-in script.module.elementtree has been installed.'
  267. 14:27:38 T:3080 M:2046808064   DEBUG: ADDON: cpluff: 'Plug-in xbmc.addon has been installed.'
  268. 14:27:38 T:3080 M:2046808064   DEBUG: ADDON: cpluff: 'Plug-in visualization.waveform has been installed.'
  269. 14:27:38 T:3080 M:2046808064   DEBUG: ADDON: cpluff: 'Plug-in screensaver.rsxs.plasma has been installed.'
  270. 14:27:38 T:3080 M:2046808064   DEBUG: ADDON: cpluff: 'Plug-in skin.transparency has been installed.'
  271. 14:27:38 T:3080 M:2046808064   DEBUG: ADDON: cpluff: 'Plug-in script.module.pysqlite has been installed.'
  272. 14:27:38 T:3080 M:2046808064   DEBUG: ADDON: cpluff: 'Plug-in metadata.mtv.com has been installed.'
  273. 14:27:38 T:3080 M:2046808064   DEBUG: ADDON: cpluff: 'Plug-in visualization.itunes has been installed.'
  274. 14:27:38 T:3080 M:2046808064   DEBUG: ADDON: cpluff: 'Plug-in metadata.common.hdtrailers.net has been installed.'
  275. 14:27:38 T:3080 M:2046808064   DEBUG: ADDON: cpluff: 'Not all directories were successfully scanned.'
  276. 14:27:38 T:3112 M:2046779392   DEBUG: Thread CRemoteControl start, auto delete: 0
  277. 14:27:38 T:3112 M:2045747200   DEBUG: CRemoteControl::Connect - connecting to: ::1:24000 ...
  278. 14:27:38 T:3080 M:2045747200   DEBUG: CWinSystemWin32::ResizeInternal - resizing due to size change (0,0,1920,1080 fullscreen)->(-1920,-30,0,1050 fullscreen)
  279. 14:27:38 T:3080 M:2044252160   DEBUG: CWinEventsWin32::WndProcWindow is active
  280. 14:27:39 T:3080 M:2044182528   DEBUG: CRenderSystemDX::InitRenderSystem - trying D3D9Ex...
  281. 14:27:39 T:3080 M:2043453440   DEBUG: CRenderSystemDX::InitRenderSystem - using D3D9Ex
  282. 14:27:39 T:3080 M:2043449344   DEBUG: CRenderSystemDX::CreateDevice on adapter 1
  283. 14:27:39 T:3080 M:2043437056   DEBUG: CRenderSystemDX::CreateDevice - using hardware vertex processing
  284. 14:27:39 T:3080 M:2035859456   DEBUG: CRenderSystemDX::CreateDevice - adapter 1: nvd3dum.dll, NVIDIA GeForce GT 240, VendorId 4318, DeviceId 3235
  285. 14:27:39 T:3080 M:2035859456   DEBUG: CRenderSystemDX::CreateDevice - using D3DCAPS2_DYNAMICTEXTURES
  286. 14:27:39 T:3080 M:2035859456   DEBUG: CRenderSystemDX::CreateDevice - texture caps: 0x0001ECC5
  287. 14:27:39 T:3080 M:2035855360   DEBUG: CRenderSystemDX::CreateDevice - RENDER_CAPS_DXT
  288. 14:27:39 T:3080 M:2035855360   DEBUG: CRenderSystemDX::CreateDevice - RENDER_CAPS_NPOT
  289. 14:27:39 T:3080 M:2035855360   DEBUG: CRenderSystemDX::CreateDevice - RENDER_CAPS_DXT_NPOT
  290. 14:27:39 T:3080 M:2035855360   DEBUG: CRenderSystemDX::CreateDevice - nVidia workaround - disabling RENDER_CAPS_DXT_NPOT
  291. 14:27:39 T:3080 M:2035748864   DEBUG: CWinSystemWin32::SetFullScreen (windowed fullscreen) on screen 1 with size 1920x1080, refresh 60.000000
  292. 14:27:39 T:3080 M:2035736576    INFO: load default splash image: C:\Program Files\XBMC\media\Splash.png
  293. 14:27:39 T:3080 M:2035654656   DEBUG: SECTION:LoadDLL(special://xbmcbin/system/ImageLib.dll)
  294. 14:27:39 T:3080 M:2030333952    INFO: load keymapping
  295. 14:27:39 T:3080 M:2030088192    INFO: Loading special://xbmc/system/keymaps/appcommand.xml
  296. 14:27:39 T:3080 M:2030030848    INFO: Loading special://xbmc/system/keymaps/gamepad.xml
  297. 14:27:39 T:3080 M:2030010368    INFO: Loading special://xbmc/system/keymaps/joystick.Alienware.Dual.Compatible.Controller.xml
  298. 14:27:39 T:3080 M:2029989888    INFO: Loading special://xbmc/system/keymaps/joystick.AppleRemote.xml
  299. 14:27:39 T:3080 M:2029973504    INFO: Loading special://xbmc/system/keymaps/joystick.Harmony.xml
  300. 14:27:39 T:3080 M:2029948928    INFO: Loading special://xbmc/system/keymaps/joystick.Interact.AxisPad.xml
  301. 14:27:39 T:3080 M:2029940736    INFO: Loading special://xbmc/system/keymaps/joystick.Logitech.RumblePad.2.xml
  302. 14:27:39 T:3080 M:2029928448    INFO: Loading special://xbmc/system/keymaps/joystick.Microsoft.Xbox.360.Controller.xml
  303. 14:27:39 T:3080 M:2029912064    INFO: Loading special://xbmc/system/keymaps/joystick.Microsoft.Xbox.Controller.S.xml
  304. 14:27:39 T:3080 M:2029887488    INFO: Loading special://xbmc/system/keymaps/joystick.PS3.Remote.Keyboard.xml
  305. 14:27:39 T:3080 M:2029871104    INFO: Loading special://xbmc/system/keymaps/joystick.WiiRemote.xml
  306. 14:27:39 T:3080 M:2029858816    INFO: Loading special://xbmc/system/keymaps/keyboard.nyxboard.xml
  307. 14:27:39 T:3080 M:2029838336    INFO: Loading special://xbmc/system/keymaps/keyboard.xml
  308. 14:27:39 T:3080 M:2029805568    INFO: Loading special://xbmc/system/keymaps/mouse.xml
  309. 14:27:39 T:3080 M:2029801472    INFO: Loading special://xbmc/system/keymaps/remote.xml
  310. 14:27:39 T:3080 M:2029772800    INFO: Loading special://xbmc/system/IRSSmap.xml
  311. 14:27:39 T:3080 M:2029768704    INFO: * Adding remote mapping for device 'Microsoft MCE'
  312. 14:27:39 T:3080 M:2029768704    INFO: * Adding remote mapping for device 'Abstract'
  313. 14:27:39 T:3080 M:2029768704   DEBUG: CButtonTranslator::Load - no userdata IRSSmap.xml found, skipping
  314. 14:27:39 T:3080 M:2029768704    INFO: GUI format 1920x1080 1920x1080 @ 60.00 - Full Screen #2
  315. 14:27:39 T:3080 M:2029768704   DEBUG: guilib: No algorithm for solving rendering passes
  316. 14:27:39 T:3080 M:2029768704  NOTICE: initializing playlistplayer
  317. 14:27:39 T:3080 M:2029764608  NOTICE: DONE initializing playlistplayer
  318. 14:27:39 T:3080 M:2029764608   DEBUG: DPMS: supported power-saving modes: OFF STANDBY
  319. 14:27:39 T:3080 M:2029133824    INFO: Unloading old skin ...
  320. 14:27:39 T:3080 M:2028900352   DEBUG: ------ Window Deinit (DialogMuteBug.xml) ------
  321. 14:27:39 T:3080 M:2028937216    INFO:   load skin from:C:\Users\Eddie\AppData\Roaming\XBMC\addons\transparency-xbmc
  322. 14:27:39 T:3080 M:2028933120    INFO: Loading skin includes from C:\Users\Eddie\AppData\Roaming\XBMC\addons\transparency-xbmc\720p\includes.xml
  323. 14:27:39 T:3080 M:2015629312    INFO:   load fonts for skin...
  324. 14:27:39 T:3080 M:2015612928    INFO: Loading fonts from C:\Users\Eddie\AppData\Roaming\XBMC\addons\transparency-xbmc\720p\Font.xml
  325. 14:27:39 T:3080 M:2012614656    INFO:   load new skin...
  326. 14:27:39 T:3080 M:2012614656    INFO: Loading skin file: Home.xml
  327. 14:27:39 T:3080 M:2012110848   ERROR: Error evaluating boolean expression Container(5040).HasFocus(5) + [PVR.IsRecording | PVR.HasTimer] + ![Player.HasVideo + !Skin.HasSetting(homepageVideoinfo)] + ![Player.HasAudio + !Skin.HasSetting(homepageMusicinfo)]
  328. 14:27:39 T:3080 M:2012049408   ERROR: Error evaluating boolean expression !PVR.IsRecording + PVR.HasTimer
  329. 14:27:39 T:3112 M:2009296896   DEBUG: CRemoteControl::Connect - connecting to: 127.0.0.1:24000 ...
  330. 14:27:39 T:3080 M:2009280512    INFO: Loading user windows, path C:\Users\Eddie\AppData\Roaming\XBMC\addons\transparency-xbmc\720p
  331. 14:27:39 T:3080 M:2006970368   DEBUG: Load Skin XML: 186.66ms
  332. 14:27:39 T:3080 M:2006970368    INFO:   initialize new skin...
  333. 14:27:39 T:3080 M:2006970368    INFO: Loading skin file: DialogVolumeBar.xml
  334. 14:27:39 T:3080 M:2006933504    INFO: Loading skin file: DialogSeekBar.xml
  335. 14:27:39 T:3080 M:2006851584    INFO: Loading skin file: DialogKaiToast.xml
  336. 14:27:39 T:3080 M:2006843392    INFO: Loading skin file: DialogMuteBug.xml
  337. 14:27:39 T:3080 M:2006835200   DEBUG: guilib: No algorithm for solving rendering passes
  338. 14:27:39 T:3080 M:2006704128    INFO:   skin loaded...
  339. 14:27:39 T:3080 M:2006704128   DEBUG: Activating window ID: 12999
  340. 14:27:39 T:3080 M:2006700032   DEBUG: ------ Window Init (Startup.xml) ------
  341. 14:27:39 T:3080 M:2006700032    INFO: Loading skin file: Startup.xml
  342. 14:27:39 T:3080 M:2006695936    INFO: removing tempfiles
  343. 14:27:39 T:3080 M:2006691840  NOTICE: CApplication::UpdateLibraries - Starting video library startup scan
  344. 14:27:39 T:3080 M:2006687744   DEBUG: ------ Window Init (DialogVideoScan.xml) ------
  345. 14:27:39 T:3080 M:2006687744    INFO: Loading skin file: DialogVideoScan.xml
  346. 14:27:39 T:3080 M:2006228992   DEBUG: ADDON: Starting service addons.
  347. 14:27:39 T:3080 M:2006216704  NOTICE: initialize done
  348. 14:27:39 T:3080 M:2006216704  NOTICE: Running the application...
  349. 14:27:39 T:3080 M:2006216704   DEBUG: CApplication::ExecuteXBMCAction : Translating RunScript(script.tv.show.next.aired,silent=True&alarm=3600)
  350. 14:27:39 T:3080 M:2006216704   DEBUG: CApplication::ExecuteXBMCAction : To RunScript(script.tv.show.next.aired,silent=True&alarm=3600)
  351. 14:27:39 T:1968 M:2006183936   DEBUG: Thread VIDEO::CVideoInfoScanner start, auto delete: 0
  352. 14:27:39 T:3080 M:2006163456    INFO: initializing python engine.
  353. 14:27:39 T:1968 M:2005032960  NOTICE: VideoInfoScanner: Starting scan ..
  354. 14:27:39 T:1968 M:2003480576   DEBUG: VideoInfoScanner: No (new) information was found in dir F:\TV Series\90210\
  355. 14:27:39 T:3080 M:2003353600   DEBUG: new python thread created. id=1
  356. 14:27:39 T:3080 M:2003337216   DEBUG: CApplication::ExecuteXBMCAction : Translating ReplaceWindow(Home)
  357. 14:27:39 T:3080 M:2003337216   DEBUG: CApplication::ExecuteXBMCAction : To ReplaceWindow(Home)
  358. 14:27:39 T:3080 M:2003337216   DEBUG: Activating window ID: 10000
  359. 14:27:39 T:3080 M:2003337216   DEBUG: ------ Window Deinit (Startup.xml) ------
  360. 14:27:39 T:3080 M:2003337216   DEBUG: ------ Window Init (Home.xml) ------
  361. 14:27:39 T:1412 M:2003329024   DEBUG: Thread XBPyThread start, auto delete: 0
  362. 14:27:39 T:1412 M:2003329024   DEBUG: Python thread: start processing
  363. 14:27:39 T:3080 M:2003243008   DEBUG: XBPython::Process - no profile autoexec.py (C:\Users\Eddie\AppData\Roaming\XBMC\userdata\autoexec.py) found, skipping
  364. 14:27:39 T:3080 M:2003234816   DEBUG: CNetwork::NetworkMessage - Starting network services
  365. 14:27:39 T:3080 M:2003222528  NOTICE: ES: Starting event server
  366. 14:27:39 T:1412 M:2002444288  NOTICE: -->Python Interpreter Initialized<--
  367. 14:27:39 T:1412 M:2002444288   DEBUG: XBPyThread::Process - The source file to load is C:\Users\Eddie\AppData\Roaming\XBMC\addons\script.tv.show.next.aired\default.py
  368. 14:27:39 T:1412 M:2002440192   DEBUG: XBPyThread::Process - Setting the Python path to C:\Users\Eddie\AppData\Roaming\XBMC\addons\script.tv.show.next.aired;C:\Users\Eddie\AppData\Roaming\XBMC\addons\script.module.simplejson\lib;C:\Users\Eddie\AppData\Roaming\XBMC\addons\script.module.beautifulsoup\lib;C:\Program Files\XBMC\addons\script.module.pil\lib;C:\Users\Eddie\AppData\Roaming\XBMC\addons\script.module.elementtree\lib;C:\Program Files\XBMC\addons\script.module.pysqlite\lib;C:\Program Files\XBMC\system\python\DLLs;C:\Program Files\XBMC\system\python\Lib;C:\Program Files\XBMC\python26.zip;C:\Program Files\XBMC\system\python\lib\plat-win;C:\Program Files\XBMC\system\python\lib\lib-tk;C:\Program Files\XBMC;C:\Program Files\XBMC\system\python;C:\Program Files\XBMC\system\python\lib\site-packages;
  369. 14:27:39 T:1412 M:2002440192   DEBUG: XBPyThread::Process - Entering source directory C:\Users\Eddie\AppData\Roaming\XBMC\addons\script.tv.show.next.aired
  370. 14:27:39 T:1412 M:2002436096   DEBUG: Instantiating addon using automatically obtained id of "script.tv.show.next.aired" dependent on version 1.0 of the xbmc.python api
  371. 14:27:39 T:3832 M:2000879616   DEBUG: Thread CJobWorker start, auto delete: 1
  372. 14:27:39 T:3080 M:2000490496    INFO: JSONRPC Server: Successfully initialized
  373. 14:27:39 T:3080 M:2000453632   DEBUG: CLastfmScrobbler: Clearing session.
  374. 14:27:39 T:3080 M:2000453632   DEBUG: CLibrefmScrobbler: Clearing session.
  375. 14:27:39 T:3084 M:2000388096   DEBUG: Thread JSONRPC::CTCPServer start, auto delete: 0
  376. 14:27:39 T:1968 M:2000388096   DEBUG: VideoInfoScanner: No (new) information was found in dir F:\TV Series\Alphas\
  377. 14:27:39 T:1968 M:2000117760   DEBUG: VideoInfoScanner: No (new) information was found in dir F:\TV Series\Blue Bloods\
  378. 14:27:39 T:1968 M:2000011264   DEBUG: VideoInfoScanner: No (new) information was found in dir F:\TV Series\Body of Proof\
  379. 14:27:39 T:1412 M:1999876096   ERROR: C:\Users\Eddie\AppData\Roaming\XBMC\addons\script.tv.show.next.aired\default.py:26: DeprecationWarning: os.getcwd() currently lies to you so please use addon.getAddonInfo('path') to find the script's root directory and DO NOT make relative path accesses based on the results of 'os.getcwd.'
  380.                                               RESOURCES_PATH = os.path.join( os.getcwd() , "resources" )
  381. 14:27:39 T:1412 M:1999876096  NOTICE: ### TV-Show Next-Aired starting ...
  382. 14:27:39 T:1412 M:1999876096  NOTICE: ### author: Ppic, Frost
  383. 14:27:39 T:1412 M:1999876096  NOTICE: ### URL: http://code.google.com/p/passion-xbmc/
  384. 14:27:39 T:1412 M:1999876096  NOTICE: ### credits: Team Passion-XBMC, http://passion-xbmc.org/
  385. 14:27:39 T:1412 M:1999876096  NOTICE: ### date: 17-10-2010
  386. 14:27:39 T:1412 M:1999876096  NOTICE: ### version: 2.1.2
  387. 14:27:39 T:1412 M:1999876096  NOTICE: {'alarm': '3600', 'silent': 'True'}
  388. 14:27:39 T:1412 M:1999872000  NOTICE: ###db less than 24, fetch local data...
  389. 14:27:39 T:1412 M:1999872000  NOTICE: ### Load list: C:\Users\Eddie\AppData\Roaming\XBMC\userdata\addon_data\script.tv.show.next.aired\next_aired.db
  390. 14:27:39 T:1968 M:1999826944   DEBUG: VideoInfoScanner: No (new) information was found in dir F:\TV Series\Bones\
  391. 14:27:39 T:1412 M:1998426112  NOTICE: ###data available
  392. 14:27:39 T:1412 M:1998426112  NOTICE: ### next list: 27 shows ### [{'Status': 'New Series', 'ep_img': 'F:\\TV Series\\Alphas\\folder.jpg', 'RFC3339': '2011-07-11T22:00:00-4:00', 'GMT+0 NODST': '1310428800', 'Network': 'Syfy', 'Classification': 'Scripted', 'Started': 'Jul/11/2011', 'Show Name': 'Alphas', 'Show URL': 'http://www.tvrage.com/Alphas', 'Genres': 'Action | Drama | Family | Sci-Fi | Thriller', 'Premiered': '2011', 'Airtime': 'Monday at 10:00 pm', 'Ended': '', 'Show ID': '19268', 'Country': 'USA', 'Next Episode': '01x01^Pilot^Jul/11/2011', 'path': 'F:\\TV Series\\Alphas\\', 'Runtime': '60', 'localname': 'Alphas'}, {'Status': 'Returning Series', 'ep_img': 'F:\\TV Series\\Burn Notice\\folder.jpg', 'RFC3339': '2011-06-23T21:00:00-4:00', 'GMT+0 NODST': '1308870000', 'Network': 'USA', 'Classification': 'Scripted', 'Started': 'Jun/28/2007', 'Show Name': 'Burn Notice', 'Show URL': 'http://www.tvrage.com/Burn_Notice', 'Genres': 'Action | Adventure | Crime | Drama', 'Premiered': '2007', 'Airtime': 'Thursday at 09:00 pm', 'Ended': '', 'Show ID': '15383', 'Country': 'USA', 'Next Episode': '05x01^Company Man^Jun/23/2011', 'path': 'F:\\TV Series\\Burn Notice\\', 'Runtime': '60', 'localname': 'Burn Notice', 'Latest Episode': '04x18^Last Stand^Dec/16/2010'}, {'Status': 'New Series', 'ep_img': "F:\\TV Series\\Charlie's Angels (2011)\\folder.jpg", 'Genres': 'Action | Crime | Drama | Family', 'GMT+0 NODST': '', 'Network': 'ABC', 'Classification': 'Scripted', 'Started': '2011', 'Show Name': "Charlie's Angels (2011)", 'Show URL': 'http://www.tvrage.com/Charlies_Angels', 'Premiered': '2011', 'Airtime': 'Thursday at 08:00 pm', 'Ended': '', 'Show ID': '24634', 'Country': 'USA', 'Next Episode': '01x01^Pilot^Sep/2011', 'path': "F:\\TV Series\\Charlie's Angels (2011)\\", 'Runtime': '60', 'localname': "Charlie's Angels (2011)"}, {'Status': 'New Series', 'ep_img': 'F:\\TV Series\\Combat Hospital\\folder.jpg', 'RFC3339': '2011-06-21T22:00:00-4:00', 'GMT+0 NODST': '1308700800', 'Network': 'ABC', 'Classification': 'Scripted', 'Started': 'Jun/21/2011', 'Show Name': 'Combat Hospital', 'Show URL': 'http://www.tvrage.com/The_Hot_Zone', 'Genres': 'Action | Drama | Family | Medical | Military/War', 'Premiered': '2011', 'Airtime': 'Tuesday at 10:00 pm', 'Ended': '', 'Show ID': '27941', 'Country': 'USA', 'Next Episode': '01x01^Welcome to Kandahar^Jun/21/2011', 'path': 'F:\\TV Series\\Combat Hospital\\', 'Runtime': '60', 'localname': 'Combat Hospital'}, {'Status': 'Returning Series', 'ep_img': 'F:\\TV Series\\Covert Affairs\\folder.jpg', 'RFC3339': '2011-06-21T22:00:00-4:00', 'GMT+0 NODST': '1308700800', 'Network': 'USA', 'Classification': 'Scripted', 'Started': 'Jul/13/2010', 'Show Name': 'Covert Affairs', 'Show URL': 'http://www.tvrage.com/Covert_Affairs', 'Genres': 'Action | Crime | Drama | Family | Thriller', 'Premiered': '2010', 'Airtime': 'Tuesday at 10:00 pm', 'Ended': '', 'Show ID': '23686', 'Country': 'USA', 'Next Episode': '02x03^Bang and Blame^Jun/21/2011', 'path': 'F:\\TV Series\\Covert Affairs\\', 'Runtime': '60', 'localname': 'Covert Affairs', 'Latest Episode': '02x02^Good Advices^Jun/14/2011'}, {'Status': 'Returning Series', 'ep_img': 'F:\\TV Series\\Drop Dead Diva\\folder.jpg', 'RFC3339': '2011-06-19T21:00:00-4:00', 'GMT+0 NODST': '1308524400', 'Network': 'Lifetime', 'Classification': 'Scripted', 'Started': 'Jul/12/2009', 'Show Name': 'Drop Dead Diva', 'Show URL': 'http://www.tvrage.com/Drop_Dead_Diva', 'Genres': 'Comedy | Drama', 'Premiered': '2009', 'Airtime': 'Sunday at 09:00 pm', 'Ended': '', 'Show ID': '21886', 'Country': 'USA', 'Next Episode': '03x01^Hit and Run^Jun/19/2011', 'path': 'F:\\TV Series\\Drop Dead Diva\\', 'Runtime': '60', 'localname': 'Drop Dead Diva', 'Latest Episode': '02x13^Freeze The Day^Aug/29/2010'}, {'Status': 'New Series', 'ep_img': 'F:\\TV Series\\Falling Skies\\folder.jpg', 'RFC3339': '2011-06-19T21:00:00-4:00', 'GMT+0 NODST': '1308524400', 'Network': 'TNT', 'Classification': 'Scripted', 'Started': 'Jun/19/2011', 'Show Name': 'Falling Skies', 'Show URL': 'http://www.tvrage.com/shows/id-26205', 'Genres': 'Action | Military/War | Mystery | Sci-Fi', 'Premiered': '2011', 'Airtime': 'Sunday at 10:00 pm', 'Ended': '', 'Show ID': '26205', 'Special Airtime': '09:00 pm', 'Country': 'USA', 'Next Episode': '01x01^Live and Learn^Jun/19/2011', 'path': 'F:\\TV Series\\Falling Skies\\', 'Runtime': '60', 'localname': 'Falling Skies'}, {'Status': 'Returning Series', 'ep_img': 'F:\\TV Series\\Game of Thrones\\folder.jpg', 'RFC3339': '2011-06-19T21:00:00-4:00', 'GMT+0 NODST': '1308524400', 'Network': 'HBO', 'Classification': 'Scripted', 'Started': 'Dec/10/2010', 'Show Name': 'Game of Thrones', 'Show URL': 'http://www.tvrage.com/Game_of_Thrones', 'Genres': 'Action | Drama | Fantasy', 'Premiered': '2010', 'Airtime': 'Sunday at 09:00 pm', 'Ended': '', 'Show ID': '24493', 'Country': 'USA', 'Next Episode': '01x10^Fire and Blood^Jun/19/2011', 'path': 'F:\\TV Series\\Game of Thrones\\', 'Runtime': '60', 'localname': 'Game of Thrones', 'Latest Episode': '01x09^Baelor^Jun/12/2011'}, {'Status': 'New Series', 'ep_img': 'F:\\TV Series\\Grimm\\folder.jpg', 'RFC3339': '2011-09-30T21:00:00-4:00', 'GMT+0 NODST': '1317423600', 'Network': 'NBC', 'Classification': 'Scripted', 'Started': 'Sep/30/2011', 'Show Name': 'Grimm', 'Show URL': 'http://www.tvrage.com/Grimm', 'Genres': 'Drama | Horror/Supernatural', 'Premiered': '2011', 'Airtime': 'Friday at 09:00 pm', 'Ended': '', 'Show ID': '28352', 'Country': 'USA', 'Next Episode': '01x01^Episode 1^Sep/30/2011', 'path': 'F:\\TV Series\\Grimm\\', 'Runtime': '60', 'localname': 'Grimm'}, {'Status': 'Returning Series', 'ep_img': 'F:\\TV Series\\Haven\\folder.jpg', 'RFC3339': '2011-07-15T22:00:00-4:00', 'GMT+0 NODST': '1310774400', 'Network': 'Syfy', 'Classification': 'Scripted', 'Started': 'Jul/09/2010', 'Show Name': 'Haven', 'Show URL': 'http://www.tvrage.com/Haven', 'Genres': 'Horror/Supernatural | Mystery', 'Premiered': '2010', 'Airtime': 'Friday at 10:00 pm', 'Ended': '', 'Show ID': '24496', 'Country': 'USA', 'Next Episode': '02x01^A Tale of Two Audreys^Jul/15/2011', 'path': 'F:\\TV Series\\Haven\\', 'Runtime': '60', 'localname': 'Haven', 'Latest Episode': '01x13^Spiral^Oct/08/2010'}, {'Status': 'Final Season', 'ep_img': 'F:\\TV Series\\Law & Order- Criminal Intent\\folder.jpg', 'RFC3339': '2011-06-19T21:00:00-4:00', 'GMT+0 NODST': '1308524400', 'Network': 'USA', 'Classification': 'Scripted', 'Started': 'Sep/30/2001', 'Show Name': 'Law & Order: Criminal Intent', 'Show URL': 'http://www.tvrage.com/Law_And_Order_CI', 'Genres': 'Action | Crime | Drama', 'Premiered': '2001', 'Airtime': 'Sunday at 09:00 pm', 'Ended': 'Jun/26/2011', 'Show ID': '4203', 'Country': 'USA', 'Next Episode': '10x07^Icarus^Jun/19/2011', 'path': 'F:\\TV Series\\Law & Order- Criminal Intent\\', 'Runtime': '60', 'localname': 'Law & Order: Criminal Intent', 'Latest Episode': '10x06^Cadaver^Jun/12/2011'}, {'Status': 'Final Season', 'ep_img': 'F:\\TV Series\\Law & Order- Los Angeles\\folder.jpg', 'RFC3339': '2011-06-20T22:00:00-4:00', 'GMT+0 NODST': '1308614400', 'Network': 'NBC', 'Classification': 'Scripted', 'Started': 'Sep/29/2010', 'Show Name': 'Law & Order: Los Angeles', 'Show URL': 'http://www.tvrage.com/Law_And_Order-Los_Angeles', 'Genres': 'Action | Crime | Drama', 'Premiered': '2010', 'Airtime': 'Monday at 10:00 pm', 'Ended': 'Jun/27/2011', 'Show ID': '25450', 'Country': 'USA', 'Next Episode': '01x20^El Sereno^Jun/20/2011', 'path': 'F:\\TV Series\\Law & Order- Los Angeles\\', 'Runtime': '60', 'localname': 'Law & Order: Los Angeles', 'Latest Episode': '01x19^Carthay Circle^Jun/06/2011'}, {'Status': 'Returning Series', 'ep_img': 'F:\\TV Series\\Leverage\\folder.jpg', 'RFC3339': '2011-06-26T21:00:00-4:00', 'GMT+0 NODST': '1309129200', 'Network': 'TNT', 'Classification': 'Scripted', 'Started': 'Dec/07/2008', 'Show Name': 'Leverage', 'Show URL': 'http://www.tvrage.com/Leverage', 'Genres': 'Action | Comedy | Crime | Drama', 'Premiered': '2008', 'Airtime': 'Sunday at 09:00 pm', 'Ended': '', 'Show ID': '18411', 'Country': 'USA', 'Next Episode': '04x01^The Long Way Down Job^Jun/26/2011', 'path': 'F:\\TV Series\\Leverage\\', 'Runtime': '60', 'localname': 'Leverage', 'Latest Episode': '03x16^The San Lorenzo Job^Dec/19/2010'}, {'Status': 'Returning Series', 'ep_img': 'F:\\TV Series\\Lost Girl\\folder.jpg', 'RFC3339': '2011-09-11T21:00:00-4:00', 'GMT+0 NODST': '1315782000', 'Network': 'Showcase (Canada)', 'Classification': 'Scripted', 'Started': 'Sep/12/2010', 'Show Name': 'Lost Girl', 'Show URL': 'http://www.tvrage.com/Lost_Girl', 'Genres': 'Action | Adventure | Drama | Fantasy | Horror/Supernatural | Romance/Dating', 'Premiered': '2010', 'Airtime': 'Sunday at 09:00 pm', 'Ended': '', 'Show ID': '26401', 'Country': 'Canada', 'Next Episode': '02x01^Season 2, Episode 1^Sep/11/2011', 'path': 'F:\\TV Series\\Lost Girl\\', 'Runtime': '60', 'localname': 'Lost Girl', 'Latest Episode': '01x13^Bloodlines^Dec/12/2010'}, {'Status': 'Returning Series', 'ep_img': 'F:\\TV Series\\Nurse Jackie\\folder.jpg', 'RFC3339': '2011-06-20T22:00:00-4:00', 'GMT+0 NODST': '1308614400', 'Network': 'Showtime', 'Classification': 'Scripted', 'Started': 'Jun/08/2009', 'Show Name': 'Nurse Jackie', 'Show URL': 'http://www.tvrage.com/Nurse_Jackie', 'Genres': 'Comedy | Drama | Family | Medical | Thriller', 'Premiered': '2009', 'Airtime': 'Monday at 10:00 pm', 'Ended': '', 'Show ID': '19651', 'Country': 'USA', 'Next Episode': '03x12^\xe2\x80\xa6Deaf Blind Tumor Pee-Test^Jun/20/2011', 'path': 'F:\\TV Series\\Nurse Jackie\\', 'Runtime': '30', 'localname': 'Nurse Jackie', 'Latest Episode': '03x11^Batting Practice^Jun/13/2011'}, {'Status': 'Returning Series', 'ep_img': 'F:\\TV Series\\Rizzoli & Isles\\folder.jpg', 'RFC3339': '2011-07-11T22:00:00-4:00', 'GMT+0 NODST': '1310428800', 'Network': 'TNT', 'Classification': 'Scripted', 'Started': 'Jul/12/2010', 'Show Name': 'Rizzoli & Isles', 'Show URL': 'http://www.tvrage.com/Rizzoli_And_Isles', 'Genres': 'Crime | Drama', 'Premiered': '2010', 'Airtime': 'Monday at 10:00 pm', 'Ended': '', 'Show ID': '24996', 'Country': 'USA', 'Next Episode': "02x01^We Don't Need Another Hero^Jul/11/2011", 'path': 'F:\\TV Series\\Rizzoli & Isles\\', 'Runtime': '60', 'localname': 'Rizzoli & Isles', 'Latest Episode': '01x10^When the Gun Goes Bang, Bang, Bang^Sep/13/2010'}, {'Status': 'Returning Series', 'ep_img': 'F:\\TV Series\\Rookie Blue\\folder.jpg', 'RFC3339': '2011-06-23T22:00:00-4:00', 'GMT+0 NODST': '1308873600', 'Network': 'ABC', 'Classification': 'Scripted', 'Started': 'Jun/24/2010', 'Show Name': 'Rookie Blue', 'Show URL': 'http://www.tvrage.com/Rookie_Blue', 'Genres': 'Action | Crime | Drama | Family', 'Premiered': '2010', 'Airtime': 'Thursday at 10:00 pm', 'Ended': '', 'Show ID': '22464', 'Country': 'Canada', 'Next Episode': '02x01^Butterflies^Jun/23/2011', 'path': 'F:\\TV Series\\Rookie Blue\\', 'Runtime': '60', 'localname': 'Rookie Blue', 'Latest Episode': '01x13^Takedown^Sep/09/2010'}, {'Status': 'Returning Series', 'ep_img': 'F:\\TV Series\\Royal Pains\\folder.jpg', 'RFC3339': '2011-06-29T21:00:00-4:00', 'GMT+0 NODST': '1309388400', 'Network': 'USA', 'Classification': 'Scripted', 'Started': 'Jun/04/2009', 'Show Name': 'Royal Pains', 'Show URL': 'http://www.tvrage.com/Royal_Pains', 'Genres': 'Comedy | Family | Medical', 'Premiered': '2009', 'Airtime': 'Wednesday at 09:00 pm', 'Ended': '', 'Show ID': '22336', 'Country': 'USA', 'Next Episode': '03x01^Traffic^Jun/29/2011', 'path': 'F:\\TV Series\\Royal Pains\\', 'Runtime': '60', 'localname': 'Royal Pains', 'Latest Episode': '02x18^Listen to the Music^Feb/24/2011'}, {'Status': 'Returning Series', 'ep_img': 'F:\\TV Series\\Sanctuary\\folder.jpg', 'RFC3339': '2011-06-20T22:00:00-4:00', 'GMT+0 NODST': '1308614400', 'Network': 'Syfy', 'Classification': 'Scripted', 'Started': 'Oct/03/2008', 'Show Name': 'Sanctuary (US)', 'Show URL': 'http://www.tvrage.com/Sanctuary', 'Genres': 'Action | Adventure | Drama | Family | Sci-Fi', 'Premiered': '2008', 'Airtime': 'Monday at 10:00 pm', 'Ended': '', 'Show ID': '18682', 'Country': 'USA', 'Next Episode': '03x20^Into the Black^Jun/20/2011', 'path': 'F:\\TV Series\\Sanctuary\\', 'Runtime': '60', 'localname': 'Sanctuary', 'Latest Episode': '03x19^Out of the Blue^Jun/13/2011'}, {'Status': 'New Series', 'ep_img': 'F:\\TV Series\\Teen Wolf (2011)\\folder.jpg', 'RFC3339': '2011-06-20T22:00:00-4:00', 'GMT+0 NODST': '1308614400', 'Network': 'MTV', 'Classification': 'Scripted', 'Started': 'Jun/05/2011', 'Show Name': 'Teen Wolf', 'Show URL': 'http://www.tvrage.com/shows/id-27575', 'Genres': 'Drama | Fantasy | Teens', 'Premiered': '2011', 'Airtime': 'Monday at 10:00 pm', 'Ended': '', 'Show ID': '27575', 'Country': 'USA', 'Next Episode': '01x04^Magic Bullet^Jun/20/2011', 'path': 'F:\\TV Series\\Teen Wolf (2011)\\', 'Runtime': '60', 'localname': 'Teen Wolf (2011)', 'Latest Episode': '01x03^Pack Mentality^Jun/13/2011'}, {'Status': 'New Series', 'ep_img': 'F:\\TV Series\\Terra Nova\\folder.jpg', 'RFC3339': '2011-09-01T12:00:00-4:00', 'GMT+0 NODST': '1314885600', 'Network': 'FOX', 'Classification': 'Scripted', 'Started': 'Sep/01/2011', 'Show Name': 'Terra Nova', 'Show URL': 'http://www.tvrage.com/Terra_Nova', 'Genres': 'Action | Adventure | Drama | Family | Fantasy | Sci-Fi', 'Premiered': '2011', 'Airtime': 'Thursday', 'Ended': '', 'Show ID': '25729', 'Country': 'USA', 'Next Episode': '01x01^Pilot Part One^Sep/01/2011', 'path': 'F:\\TV Series\\Terra Nova\\', 'Runtime': '60', 'localname': 'Terra Nova'}, {'Status': 'New Series', 'ep_img': "F:\\TV Series\\The Avengers- Earth's Mightiest Heroes\\folder.jpg", 'RFC3339': '2011-06-19T10:00:00-4:00', 'GMT+0 NODST': '1308484800', 'Network': 'Disney XD', 'Classification': 'Animation', 'Started': 'Oct/20/2010', 'Show Name': 'Avengers: Earth\xe2\x80\x99s Mightiest Heroes', 'Show URL': 'http://www.tvrage.com/shows/id-23227', 'Genres': 'Animation General | Action | Adventure | Super Heroes', 'Premiered': '2010', 'Airtime': 'Sunday at 10:00 am', 'Ended': '', 'Show ID': '23227', 'Country': 'USA', 'Next Episode': '01x25^The Fall of Asgard^Jun/19/2011', 'path': "F:\\TV Series\\The Avengers- Earth's Mightiest Heroes\\", 'Runtime': '30', 'localname': "The Avengers: Earth's Mightiest Heroes", 'Latest Episode': '01x24^This Hostage Earth^Jun/12/2011'}, {'Status': 'Returning Series', 'ep_img': 'F:\\TV Series\\The Killing (2011)\\folder.jpg', 'RFC3339': '2011-06-19T22:00:00-4:00', 'GMT+0 NODST': '1308528000', 'Network': 'AMC', 'Classification': 'Scripted', 'Started': 'Apr/03/2011', 'Show Name': 'The Killing', 'Show URL': 'http://www.tvrage.com/The_Killing', 'Genres': 'Crime | Drama | Mystery | Politics', 'Premiered': '2011', 'Airtime': 'Sunday at 10:00 pm', 'Ended': '', 'Show ID': '27387', 'Country': 'USA', 'Next Episode': '01x13^Orpheus Descending^Jun/19/2011', 'path': 'F:\\TV Series\\The Killing (2011)\\', 'Runtime': '60', 'localname': 'The Killing (2011)', 'Latest Episode': '01x12^Beau Soleil^Jun/12/2011'}, {'Status': 'New Series', 'ep_img': 'F:\\TV Series\\The Protector\\folder.jpg', 'RFC3339': '2011-06-19T22:00:00-4:00', 'GMT+0 NODST': '1308528000', 'Network': 'Lifetime', 'Classification': 'Scripted', 'Started': 'Jun/12/2011', 'Show Name': 'The Protector', 'Show URL': 'http://www.tvrage.com/The_Protector', 'Genres': 'Crime | Drama', 'Premiered': '2011', 'Airtime': 'Sunday at 10:00 pm', 'Ended': '', 'Show ID': '28572', 'Country': 'USA', 'Next Episode': '01x02^Spoon^Jun/19/2011', 'path': 'F:\\TV Series\\The Protector\\', 'Runtime': '60', 'localname': 'The Protector', 'Latest Episode': '01x01^Pilot^Jun/12/2011'}, {'Status': 'Returning Series', 'ep_img': 'F:\\TV Series\\The Walking Dead\\folder.jpg', 'RFC3339': '2011-10-31T22:00:00-4:00', 'GMT+0 NODST': '1320109200', 'Network': 'AMC', 'Classification': 'Scripted', 'Started': 'Oct/31/2010', 'Show Name': 'The Walking Dead', 'Show URL': 'http://www.tvrage.com/The_Walking_Dead', 'Genres': 'Action | Drama | Family | Horror/Supernatural | Thriller', 'Premiered': '2010', 'Airtime': 'Sunday at 10:00 pm', 'Ended': '', 'Show ID': '25056', 'Country': 'USA', 'Next Episode': '02x01^Season 2, Episode 1^Oct/31/2011', 'path': 'F:\\TV Series\\The Walking Dead\\', 'Runtime': '60', 'localname': 'The Walking Dead', 'Latest Episode': '01x06^TS-19^Dec/05/2010'}, {'Status': 'Returning Series', 'ep_img': 'F:\\TV Series\\Warehouse 13\\folder.jpg', 'RFC3339': '2011-07-11T21:00:00-4:00', 'GMT+0 NODST': '1310425200', 'Network': 'Syfy', 'Classification': 'Scripted', 'Started': 'Jul/07/2009', 'Show Name': 'Warehouse 13', 'Show URL': 'http://www.tvrage.com/Warehouse_13', 'Genres': 'Adventure | Horror/Supernatural | Sci-Fi', 'Premiered': '2009', 'Airtime': 'Tuesday at 09:00 pm', 'Ended': '', 'Show ID': '7884', 'Country': 'USA', 'Next Episode': '03x01^The New Guy^Jul/11/2011', 'path': 'F:\\TV Series\\Warehouse 13\\', 'Runtime': '60', 'localname': 'Warehouse 13', 'Latest Episode': '02x12^Reset (2)^Sep/21/2010'}, {'Status': 'Returning Series', 'ep_img': 'F:\\TV Series\\White Collar\\folder.jpg', 'RFC3339': '2011-06-21T21:00:00-4:00', 'GMT+0 NODST': '1308697200', 'Network': 'USA', 'Classification': 'Scripted', 'Started': 'Oct/23/2009', 'Show Name': 'White Collar', 'Show URL': 'http://www.tvrage.com/White_Collar', 'Genres': 'Drama', 'Premiered': '2009', 'Airtime': 'Tuesday at 09:00 pm', 'Ended': '', 'Show ID': '20720', 'Country': 'USA', 'Next Episode': '03x03^Deadline^Jun/21/2011', 'path': 'F:\\TV Series\\White Collar\\', 'Runtime': '60', 'localname': 'White Collar', 'Latest Episode': "03x02^Where There's a Will^Jun/14/2011"}]
  393. 14:27:39 T:1412 M:1998364672  NOTICE: 2011-06-18
  394. 14:27:39 T:1412 M:1998364672  NOTICE: ################
  395. 14:27:39 T:1412 M:1998364672  NOTICE: ###The Avengers: Earth's Mightiest Heroes
  396. 14:27:39 T:1412 M:1998364672  NOTICE: ###01x25^The Fall of Asgard^Jun/19/2011
  397. 14:27:39 T:1412 M:1998364672  NOTICE: ###2011-06-19T10:00:00-4:00
  398. 14:27:39 T:1968 M:1998364672   DEBUG: VideoInfoScanner: No (new) information was found in dir F:\TV Series\Breakout Kings\
  399. 14:27:39 T:1412 M:1998364672  NOTICE: 2011-06-19
  400. 14:27:39 T:1412 M:1998364672  NOTICE: ################
  401. 14:27:39 T:1412 M:1998364672  NOTICE: ###Drop Dead Diva
  402. 14:27:39 T:1412 M:1998364672  NOTICE: ###03x01^Hit and Run^Jun/19/2011
  403. 14:27:39 T:1412 M:1998364672  NOTICE: ###2011-06-19T21:00:00-4:00
  404. 14:27:39 T:1412 M:1998364672  NOTICE: 2011-06-19
  405. 14:27:39 T:1412 M:1998364672  NOTICE: ################
  406. 14:27:39 T:1412 M:1998364672  NOTICE: ###Falling Skies
  407. 14:27:39 T:1412 M:1998364672  NOTICE: ###01x01^Live and Learn^Jun/19/2011
  408. 14:27:39 T:1412 M:1998364672  NOTICE: ###2011-06-19T21:00:00-4:00
  409. 14:27:39 T:1412 M:1998364672  NOTICE: 2011-06-19
  410. 14:27:39 T:1412 M:1998364672  NOTICE: ################
  411. 14:27:39 T:1412 M:1998364672  NOTICE: ###Game of Thrones
  412. 14:27:39 T:1412 M:1998364672  NOTICE: ###01x10^Fire and Blood^Jun/19/2011
  413. 14:27:39 T:1412 M:1998364672  NOTICE: ###2011-06-19T21:00:00-4:00
  414. 14:27:39 T:1412 M:1998364672  NOTICE: 2011-06-19
  415. 14:27:39 T:1412 M:1998364672  NOTICE: ################
  416. 14:27:39 T:1412 M:1998364672  NOTICE: ###Law & Order: Criminal Intent
  417. 14:27:39 T:1412 M:1998364672  NOTICE: ###10x07^Icarus^Jun/19/2011
  418. 14:27:39 T:1412 M:1998364672  NOTICE: ###2011-06-19T21:00:00-4:00
  419. 14:27:39 T:1412 M:1998364672  NOTICE: 2011-06-19
  420. 14:27:39 T:1412 M:1998364672  NOTICE: ################
  421. 14:27:39 T:1412 M:1998364672  NOTICE: ###The Killing (2011)
  422. 14:27:39 T:1412 M:1998364672  NOTICE: ###01x13^Orpheus Descending^Jun/19/2011
  423. 14:27:39 T:1412 M:1998364672  NOTICE: ###2011-06-19T22:00:00-4:00
  424. 14:27:39 T:1412 M:1998364672  NOTICE: 2011-06-19
  425. 14:27:39 T:1412 M:1998364672  NOTICE: ################
  426. 14:27:39 T:1412 M:1998364672  NOTICE: ###The Protector
  427. 14:27:39 T:1412 M:1998364672  NOTICE: ###01x02^Spoon^Jun/19/2011
  428. 14:27:39 T:1412 M:1998364672  NOTICE: ###2011-06-19T22:00:00-4:00
  429. 14:27:39 T:1412 M:1998364672  NOTICE: 2011-06-19
  430. 14:27:39 T:1412 M:1998364672  NOTICE: ################
  431. 14:27:39 T:1412 M:1998364672  NOTICE: ###Law & Order: Los Angeles
  432. 14:27:39 T:1412 M:1998352384  NOTICE: ###01x20^El Sereno^Jun/20/2011
  433. 14:27:39 T:1412 M:1998352384  NOTICE: ###2011-06-20T22:00:00-4:00
  434. 14:27:39 T:1412 M:1998352384  NOTICE: 2011-06-20
  435. 14:27:39 T:1412 M:1998352384  NOTICE: ################
  436. 14:27:39 T:1412 M:1998352384  NOTICE: ###Nurse Jackie
  437. 14:27:39 T:1412 M:1998352384  NOTICE: ###03x12^…Deaf Blind Tumor Pee-Test^Jun/20/2011
  438. 14:27:39 T:1412 M:1998352384  NOTICE: ###2011-06-20T22:00:00-4:00
  439. 14:27:39 T:1412 M:1998352384  NOTICE: 2011-06-20
  440. 14:27:39 T:1412 M:1998352384  NOTICE: ################
  441. 14:27:39 T:1412 M:1998352384  NOTICE: ###Sanctuary
  442. 14:27:39 T:1412 M:1998352384  NOTICE: ###03x20^Into the Black^Jun/20/2011
  443. 14:27:39 T:1412 M:1998352384  NOTICE: ###2011-06-20T22:00:00-4:00
  444. 14:27:39 T:1412 M:1998352384  NOTICE: 2011-06-20
  445. 14:27:39 T:1412 M:1998352384  NOTICE: ################
  446. 14:27:39 T:1412 M:1998352384  NOTICE: ###Teen Wolf (2011)
  447. 14:27:39 T:1412 M:1998352384  NOTICE: ###01x04^Magic Bullet^Jun/20/2011
  448. 14:27:39 T:1412 M:1998352384  NOTICE: ###2011-06-20T22:00:00-4:00
  449. 14:27:39 T:1412 M:1998352384  NOTICE: 2011-06-20
  450. 14:27:39 T:1412 M:1998352384  NOTICE: ################
  451. 14:27:39 T:1412 M:1998352384  NOTICE: ###White Collar
  452. 14:27:39 T:1412 M:1998352384  NOTICE: ###03x03^Deadline^Jun/21/2011
  453. 14:27:39 T:1412 M:1998352384  NOTICE: ###2011-06-21T21:00:00-4:00
  454. 14:27:39 T:1412 M:1998352384  NOTICE: 2011-06-21
  455. 14:27:39 T:1412 M:1998352384  NOTICE: ################
  456. 14:27:39 T:1412 M:1998352384  NOTICE: ###Combat Hospital
  457. 14:27:39 T:1412 M:1998352384  NOTICE: ###01x01^Welcome to Kandahar^Jun/21/2011
  458. 14:27:39 T:1412 M:1998352384  NOTICE: ###2011-06-21T22:00:00-4:00
  459. 14:27:39 T:1412 M:1998352384  NOTICE: 2011-06-21
  460. 14:27:39 T:1412 M:1998352384  NOTICE: ################
  461. 14:27:39 T:1412 M:1998352384  NOTICE: ###Covert Affairs
  462. 14:27:39 T:1412 M:1998352384  NOTICE: ###02x03^Bang and Blame^Jun/21/2011
  463. 14:27:39 T:1412 M:1998352384  NOTICE: ###2011-06-21T22:00:00-4:00
  464. 14:27:39 T:1412 M:1998352384  NOTICE: 2011-06-21
  465. 14:27:39 T:1412 M:1998352384  NOTICE: ################
  466. 14:27:39 T:1412 M:1998352384  NOTICE: ###Burn Notice
  467. 14:27:39 T:1412 M:1998352384  NOTICE: ###05x01^Company Man^Jun/23/2011
  468. 14:27:39 T:1412 M:1998352384  NOTICE: ###2011-06-23T21:00:00-4:00
  469. 14:27:39 T:1412 M:1998352384  NOTICE: 2011-06-23
  470. 14:27:39 T:1412 M:1998352384  NOTICE: ################
  471. 14:27:39 T:1412 M:1998352384  NOTICE: ###Rookie Blue
  472. 14:27:39 T:1412 M:1998352384  NOTICE: ###02x01^Butterflies^Jun/23/2011
  473. 14:27:39 T:1412 M:1998352384  NOTICE: ###2011-06-23T22:00:00-4:00
  474. 14:27:39 T:1412 M:1998352384  NOTICE: 2011-06-23
  475. 14:27:39 T:1412 M:1998352384  NOTICE: ################
  476. 14:27:39 T:1412 M:1998352384  NOTICE: ###Leverage
  477. 14:27:39 T:1412 M:1998352384  NOTICE: ###04x01^The Long Way Down Job^Jun/26/2011
  478. 14:27:39 T:1412 M:1998352384  NOTICE: ###2011-06-26T21:00:00-4:00
  479. 14:27:39 T:1412 M:1998352384  NOTICE: 2011-06-26
  480. 14:27:39 T:1412 M:1998352384  NOTICE: ################
  481. 14:27:39 T:1412 M:1998352384  NOTICE: ###Royal Pains
  482. 14:27:39 T:1412 M:1998352384  NOTICE: ###03x01^Traffic^Jun/29/2011
  483. 14:27:39 T:1412 M:1998352384  NOTICE: ###2011-06-29T21:00:00-4:00
  484. 14:27:39 T:1412 M:1998352384  NOTICE: 2011-06-29
  485. 14:27:39 T:1412 M:1998352384  NOTICE: ################
  486. 14:27:39 T:1412 M:1998352384  NOTICE: ###Warehouse 13
  487. 14:27:39 T:1412 M:1998352384  NOTICE: ###03x01^The New Guy^Jul/11/2011
  488. 14:27:39 T:1412 M:1998352384  NOTICE: ###2011-07-11T21:00:00-4:00
  489. 14:27:39 T:1412 M:1998352384  NOTICE: 2011-07-11
  490. 14:27:39 T:1412 M:1998352384  NOTICE: ################
  491. 14:27:39 T:1412 M:1998352384  NOTICE: ###Alphas
  492. 14:27:39 T:1412 M:1998352384  NOTICE: ###01x01^Pilot^Jul/11/2011
  493. 14:27:39 T:1412 M:1998352384  NOTICE: ###2011-07-11T22:00:00-4:00
  494. 14:27:39 T:1412 M:1998352384  NOTICE: 2011-07-11
  495. 14:27:39 T:1412 M:1998352384  NOTICE: ################
  496. 14:27:39 T:1412 M:1998352384  NOTICE: ###Rizzoli & Isles
  497. 14:27:39 T:1412 M:1998352384  NOTICE: ###02x01^We Don't Need Another Hero^Jul/11/2011
  498. 14:27:39 T:1412 M:1998352384  NOTICE: ###2011-07-11T22:00:00-4:00
  499. 14:27:39 T:1412 M:1998352384  NOTICE: 2011-07-11
  500. 14:27:39 T:1412 M:1998340096  NOTICE: ################
  501. 14:27:39 T:1412 M:1998340096  NOTICE: ###Haven
  502. 14:27:39 T:1412 M:1998340096  NOTICE: ###02x01^A Tale of Two Audreys^Jul/15/2011
  503. 14:27:39 T:1412 M:1998340096  NOTICE: ###2011-07-15T22:00:00-4:00
  504. 14:27:39 T:1412 M:1998340096  NOTICE: 2011-07-15
  505. 14:27:39 T:1412 M:1998340096  NOTICE: ################
  506. 14:27:39 T:1412 M:1998340096  NOTICE: ###Terra Nova
  507. 14:27:39 T:1412 M:1998340096  NOTICE: ###01x01^Pilot Part One^Sep/01/2011
  508. 14:27:39 T:1412 M:1998340096  NOTICE: ###2011-09-01T12:00:00-4:00
  509. 14:27:39 T:1412 M:1998340096  NOTICE: 2011-09-01
  510. 14:27:39 T:1412 M:1998340096  NOTICE: ################
  511. 14:27:39 T:1412 M:1998340096  NOTICE: ###Lost Girl
  512. 14:27:39 T:1412 M:1998340096  NOTICE: ###02x01^Season 2, Episode 1^Sep/11/2011
  513. 14:27:39 T:1412 M:1998340096  NOTICE: ###2011-09-11T21:00:00-4:00
  514. 14:27:39 T:1412 M:1998340096  NOTICE: 2011-09-11
  515. 14:27:39 T:1412 M:1998340096  NOTICE: ################
  516. 14:27:39 T:1412 M:1998340096  NOTICE: ###Grimm
  517. 14:27:39 T:1412 M:1998340096  NOTICE: ###01x01^Episode 1^Sep/30/2011
  518. 14:27:39 T:1412 M:1998340096  NOTICE: ###2011-09-30T21:00:00-4:00
  519. 14:27:39 T:1412 M:1998340096  NOTICE: 2011-09-30
  520. 14:27:39 T:1412 M:1998340096  NOTICE: ################
  521. 14:27:39 T:1412 M:1998340096  NOTICE: ###The Walking Dead
  522. 14:27:39 T:1412 M:1998340096  NOTICE: ###02x01^Season 2, Episode 1^Oct/31/2011
  523. 14:27:39 T:1412 M:1998340096  NOTICE: ###2011-10-31T22:00:00-4:00
  524. 14:27:39 T:1412 M:1998340096  NOTICE: 2011-10-31
  525. 14:27:39 T:1412 M:1998340096  NOTICE: ################
  526. 14:27:39 T:1412 M:1998340096  NOTICE: ###Charlie's Angels (2011)
  527. 14:27:39 T:1412 M:1998340096  NOTICE: ###01x01^Pilot^Sep/2011
  528. 14:27:39 T:1412 M:1998340096  NOTICE: ###no rfc
  529. 14:27:39 T:1412 M:1998340096  NOTICE: ###today show: 0 -
  530. 14:27:39 T:1412 M:1998336000   ERROR: Traceback (most recent call last):
  531. 14:27:39 T:1412 M:1998336000   ERROR:   File "C:\Users\Eddie\AppData\Roaming\XBMC\addons\script.tv.show.next.aired\default.py", line 157, in push_data
  532. 14:27:39 T:1412 M:1998336000   ERROR:     self.WINDOW.setProperty( "NextAired.%d.LatestDate" % ( count + 1, ), latest[2] or "")
  533. 14:27:39 T:1412 M:1998336000   ERROR: IndexError: list index out of range
  534. 14:27:39 T:1968 M:1998336000   DEBUG: VideoInfoScanner: No (new) information was found in dir F:\TV Series\Burn Notice\
  535. 14:27:39 T:1836 M:1998336000   DEBUG: Thread EventServer start, auto delete: 0
  536. 14:27:39 T:1836 M:1998188544  NOTICE: ES: Starting UDP Event server on 0.0.0.0:9777
  537. 14:27:39 T:1412 M:1998188544   ERROR: Traceback (most recent call last):
  538. 14:27:39 T:1412 M:1998188544   ERROR:   File "C:\Users\Eddie\AppData\Roaming\XBMC\addons\script.tv.show.next.aired\default.py", line 157, in push_data
  539. 14:27:39 T:1412 M:1998188544   ERROR:     self.WINDOW.setProperty( "NextAired.%d.LatestDate" % ( count + 1, ), latest[2] or "")
  540. 14:27:39 T:1836 M:1998188544  NOTICE: UDP: Listening on port 9777
  541. 14:27:39 T:1412 M:1998188544   ERROR: IndexError: list index out of range
  542. 14:27:39 T:1412 M:1998188544   ERROR: Traceback (most recent call last):
  543. 14:27:39 T:1412 M:1998188544   ERROR:   File "C:\Users\Eddie\AppData\Roaming\XBMC\addons\script.tv.show.next.aired\default.py", line 157, in push_data
  544. 14:27:39 T:1412 M:1998188544   ERROR:     self.WINDOW.setProperty( "NextAired.%d.LatestDate" % ( count + 1, ), latest[2] or "")
  545. 14:27:39 T:1412 M:1998188544   ERROR: IndexError: list index out of range
  546. 14:27:39 T:1412 M:1998147584   ERROR: Traceback (most recent call last):
  547. 14:27:39 T:1412 M:1998147584   ERROR:   File "C:\Users\Eddie\AppData\Roaming\XBMC\addons\script.tv.show.next.aired\default.py", line 157, in push_data
  548. 14:27:39 T:1412 M:1998147584   ERROR:     self.WINDOW.setProperty( "NextAired.%d.LatestDate" % ( count + 1, ), latest[2] or "")
  549. 14:27:39 T:1412 M:1998147584   ERROR: IndexError: list index out of range
  550. 14:27:39 T:1412 M:1998147584  NOTICE: ### Thursday
  551. 14:27:39 T:1412 M:1998147584   ERROR: Traceback (most recent call last):
  552. 14:27:39 T:1412 M:1998147584   ERROR:   File "C:\Users\Eddie\AppData\Roaming\XBMC\addons\script.tv.show.next.aired\default.py", line 157, in push_data
  553. 14:27:39 T:1412 M:1998147584   ERROR:     self.WINDOW.setProperty( "NextAired.%d.LatestDate" % ( count + 1, ), latest[2] or "")
  554. 14:27:39 T:1412 M:1998147584   ERROR: IndexError: list index out of range
  555. 14:27:39 T:1412 M:1998147584   ERROR: Traceback (most recent call last):
  556. 14:27:39 T:1412 M:1998147584   ERROR:   File "C:\Users\Eddie\AppData\Roaming\XBMC\addons\script.tv.show.next.aired\default.py", line 157, in push_data
  557. 14:27:39 T:1412 M:1998147584   ERROR:     self.WINDOW.setProperty( "NextAired.%d.LatestDate" % ( count + 1, ), latest[2] or "")
  558. 14:27:39 T:1412 M:1998147584   ERROR: IndexError: list index out of range
  559. 14:27:39 T:1412 M:1998147584  NOTICE: ### Alarm enabled: 3600
  560. 14:27:39 T:1412 M:1998147584   ERROR: C:\Users\Eddie\AppData\Roaming\XBMC\addons\script.tv.show.next.aired\default.py:111: DeprecationWarning: os.getcwd() currently lies to you so please use addon.getAddonInfo('path') to find the script's root directory and DO NOT make relative path accesses based on the results of 'os.getcwd.'
  561.                                               command = "XBMC.RunScript(%s,silent=True&alarm=%d)" % ( os.path.join( os.getcwd(), __file__ ), self.ALARM, )
  562. 14:27:39 T:1412 M:1998282752    INFO: Scriptresult: Success
  563. 14:27:39 T:1412 M:1998319616    INFO: Python script stopped
  564. 14:27:39 T:1412 M:1998319616   DEBUG: Thread Python Thread 1412 terminating
  565. 14:27:39 T:3832 M:1998299136   DEBUG: CRecentlyAddedJob::UpdateMusic() - Running RecentlyAdded home screen update
  566. 14:27:39 T:3832 M:1998225408   DEBUG: GetRecentlyAddedAlbumSongs() query: SELECT songview.* FROM (SELECT idAlbum FROM albumview ORDER BY idAlbum DESC LIMIT 10) AS recentalbums JOIN songview ON songview.idAlbum=recentalbums.idAlbum
  567. 14:27:39 T:1968 M:1998155776   DEBUG: VideoInfoScanner: No (new) information was found in dir F:\TV Series\CSI- Crime Scene Investigation\
  568. 14:27:39 T:1968 M:1997787136   DEBUG: VideoInfoScanner: No (new) information was found in dir F:\TV Series\CSI- NY\
  569. 14:27:39 T:1968 M:1997361152   DEBUG: VideoInfoScanner: No (new) information was found in dir F:\TV Series\Camelot\
  570. 14:27:39 T:1968 M:1997221888   DEBUG: VideoInfoScanner: No (new) information was found in dir F:\TV Series\Carlos\
  571. 14:27:39 T:1968 M:1996808192   DEBUG: VideoInfoScanner: No (new) information was found in dir F:\TV Series\Charlie's Angels (2011)\
  572. 14:27:39 T:1968 M:1996783616   DEBUG: VideoInfoScanner: No (new) information was found in dir F:\TV Series\Combat Hospital\
  573. 14:27:39 T:1968 M:1996742656   DEBUG: VideoInfoScanner: No (new) information was found in dir F:\TV Series\Covert Affairs\
  574. 14:27:39 T:1968 M:1996726272   DEBUG: VideoInfoScanner: No (new) information was found in dir F:\TV Series\Criminal Minds\
  575. 14:27:39 T:1968 M:1996537856   DEBUG: VideoInfoScanner: No (new) information was found in dir F:\TV Series\Drinking Made Easy\
  576. 14:27:39 T:1968 M:1996496896   DEBUG: VideoInfoScanner: No (new) information was found in dir F:\TV Series\Drop Dead Diva\
  577. 14:27:39 T:1968 M:1996472320   DEBUG: VideoInfoScanner: No (new) information was found in dir F:\TV Series\Eagleheart\
  578. 14:27:40 T:1968 M:1996361728   DEBUG: VideoInfoScanner: No (new) information was found in dir F:\TV Series\Endgame\
  579. 14:27:40 T:1968 M:1996361728   DEBUG: VideoInfoScanner: No (new) information was found in dir F:\TV Series\Falling Skies\
  580. 14:27:40 T:1968 M:1996337152   DEBUG: VideoInfoScanner: No (new) information was found in dir F:\TV Series\Fringe\
  581. 14:27:40 T:1968 M:1996279808   DEBUG: VideoInfoScanner: No (new) information was found in dir F:\TV Series\Game of Thrones\
  582. 14:27:40 T:1968 M:1995747328   DEBUG: VideoInfoScanner: No (new) information was found in dir F:\TV Series\Grimm\
  583. 14:27:40 T:1968 M:1995751424   DEBUG: VideoInfoScanner: No (new) information was found in dir F:\TV Series\Haven\
  584. 14:27:40 T:1968 M:1995653120   DEBUG: VideoInfoScanner: No (new) information was found in dir F:\TV Series\Hawaii Five-0 (2010)\
  585. 14:27:40 T:1968 M:1995431936   DEBUG: VideoInfoScanner: No (new) information was found in dir F:\TV Series\Inspector Rex\
  586. 14:27:40 T:1968 M:1995419648   DEBUG: VideoInfoScanner: No (new) information was found in dir F:\TV Series\Law & Order- Criminal Intent\
  587. 14:27:40 T:1968 M:1995419648   DEBUG: VideoInfoScanner: No (new) information was found in dir F:\TV Series\Law & Order- Los Angeles\
  588. 14:27:40 T:1968 M:1995395072   DEBUG: VideoInfoScanner: No (new) information was found in dir F:\TV Series\Law & Order- Special Victims Unit\
  589. 14:27:40 T:1968 M:1995370496   DEBUG: VideoInfoScanner: No (new) information was found in dir F:\TV Series\Law & Order- UK\
  590. 14:27:40 T:3080 M:1995337728    INFO: CD Analysis Report
  591. 14:27:40 T:3080 M:1995313152    INFO: __________________________________
  592. 14:27:40 T:3080 M:1995329536    INFO: CD-ROM with ISO 9660 filesystem
  593. 14:27:40 T:3080 M:1995329536    INFO: ISO 9660: 328335 blocks, label `
  594.                                             '
  595. 14:27:40 T:1968 M:1995329536   DEBUG: VideoInfoScanner: No (new) information was found in dir F:\TV Series\Leverage\
  596. 14:27:40 T:1968 M:1995427840   DEBUG: VideoInfoScanner: No (new) information was found in dir F:\TV Series\Lost Girl\
  597. 14:27:40 T:1968 M:1995259904   DEBUG: VideoInfoScanner: No (new) information was found in dir F:\TV Series\NCIS- Los Angeles\
  598. 14:27:40 T:1968 M:1995247616   DEBUG: VideoInfoScanner: No (new) information was found in dir F:\TV Series\Nikita\
  599. 14:27:40 T:1968 M:1995247616   DEBUG: VideoInfoScanner: No (new) information was found in dir F:\TV Series\Nurse Jackie\
  600. 14:27:40 T:1968 M:1995243520   DEBUG: VideoInfoScanner: No (new) information was found in dir F:\TV Series\Rizzoli & Isles\
  601. 14:27:40 T:3832 M:1995227136   DEBUG: CMusicDatabase::GetRecentlyAddedAlbums query: select * from albumview order by idAlbum desc limit 10
  602. 14:27:40 T:1968 M:1995210752   DEBUG: VideoInfoScanner: No (new) information was found in dir F:\TV Series\Rome\
  603. 14:27:40 T:3080 M:1995182080    INFO: CD Analysis Report
  604. 14:27:40 T:3080 M:1995182080    INFO: __________________________________
  605. 14:27:40 T:3832 M:1995530240   DEBUG: CRecentlyAddedJob::UpdateVideos() - Running RecentlyAdded home screen update
  606. 14:27:40 T:1968 M:1995530240   DEBUG: VideoInfoScanner: No (new) information was found in dir F:\TV Series\Rookie Blue\
  607. 14:27:40 T:3080 M:1995530240    INFO: CD-ROM with unknown filesystem
  608. 14:27:40 T:3080 M:1995522048   DEBUG: started alarm with name: nextaired
  609. 14:27:40 T:2764 M:1995526144   DEBUG: Thread CAlarmClock start, auto delete: 0
  610. 14:27:40 T:428 M:1995452416   DEBUG: Thread CJobWorker start, auto delete: 1
  611. 14:27:40 T:3832 M:1995427840   DEBUG: CVideoDatabase::RunQuery took 0 ms for 10 items query: select * from movieview  order by idMovie desc limit 10
  612. 14:27:40 T:3832 M:1995649024   DEBUG: CVideoDatabase::RunQuery took 1 ms for 10 items query: select * from episodeview order by idEpisode desc limit 10
  613. 14:27:40 T:3080 M:1980227584   DEBUG: ------ Window Init () ------
  614. 14:27:40 T:3080 M:1980145664   DEBUG: ------ Window Init (Pointer.xml) ------
  615. 14:27:40 T:3080 M:1980145664    INFO: Loading skin file: Pointer.xml
  616. 14:27:40 T:3080 M:1973772288   DEBUG: waiting for python thread 1 to stop
  617. 14:27:40 T:3080 M:1973772288   DEBUG: python thread 1 destructed
  618. 14:27:40 T:3080 M:1973551104   DEBUG: ------ Window Deinit (Pointer.xml) ------
  619. 14:27:40 T:3716 M:1973149696   DEBUG: Thread CJobWorker start, auto delete: 1
  620. 14:27:40 T:3716 M:1969917952    INFO: WEATHER: Downloading weather
  621. 14:27:40 T:3716 M:1972633600   DEBUG: SECTION:LoadDLL(special://xbmcbin/system/libcurl.dll)
  622. 14:27:40 T:1968 M:1972486144   DEBUG: VideoInfoScanner: No (new) information was found in dir F:\TV Series\Royal Pains\
  623. 14:27:40 T:1968 M:1967624192   DEBUG: VideoInfoScanner: No (new) information was found in dir F:\TV Series\Sanctuary\
  624. 14:27:40 T:3112 M:1965731840   ERROR: CRemoteControl::Connect - failed to connect
  625. 14:27:40 T:3112 M:1966104576    INFO: CRemoteControl::Process - failed to connect to irss, will keep retrying every 5 seconds
  626. 14:27:40 T:1968 M:1965711360   DEBUG: VideoInfoScanner: No (new) information was found in dir F:\TV Series\Sherlock\
  627. 14:27:41 T:3832 M:1967915008   DEBUG: CRecentlyAddedJob::UpdateTotal() - Running RecentlyAdded home screen update
  628. 14:27:41 T:1968 M:1965965312   DEBUG: VideoInfoScanner: No (new) information was found in dir F:\TV Series\Sons of Guns\
  629. 14:27:41 T:1968 M:1966411776   DEBUG: VideoInfoScanner: No (new) information was found in dir F:\TV Series\Spartacus- Blood and Sand\
  630. 14:27:41 T:1968 M:1965080576   DEBUG: VideoInfoScanner: No (new) information was found in dir F:\TV Series\Teen Wolf (2011)\
  631. 14:27:41 T:1968 M:1968803840   DEBUG: VideoInfoScanner: No (new) information was found in dir F:\TV Series\Terra Nova\
  632. 14:27:41 T:1968 M:1970962432   DEBUG: VideoInfoScanner: No (new) information was found in dir F:\TV Series\The Avengers- Earth's Mightiest Heroes\
  633. 14:27:41 T:1968 M:1971445760   DEBUG: VideoInfoScanner: No (new) information was found in dir F:\TV Series\The Killing (2011)\
  634. 14:27:41 T:1968 M:1971699712   DEBUG: VideoInfoScanner: No (new) information was found in dir F:\TV Series\The Mentalist\
  635. 14:27:41 T:1968 M:1970610176   DEBUG: VideoInfoScanner: No (new) information was found in dir F:\TV Series\The Protector\
  636. 14:27:41 T:1968 M:1970765824   DEBUG: VideoInfoScanner: No (new) information was found in dir F:\TV Series\The Vampire Diaries\
  637. 14:27:41 T:1968 M:1970765824   DEBUG: VideoInfoScanner: No (new) information was found in dir F:\TV Series\The Walking Dead\
  638. 14:27:41 T:1968 M:1970765824   DEBUG: VideoInfoScanner: No (new) information was found in dir F:\TV Series\Warehouse 13\
  639. 14:27:41 T:1968 M:1970765824   DEBUG: VideoInfoScanner: No (new) information was found in dir F:\TV Series\White Collar\
  640. 14:27:41 T:1968 M:1970765824   DEBUG: VideoInfoScanner: No (new) information was found in dir F:\TV Series\X-Men (2011)\
  641. 14:27:41 T:1968 M:1970761728   DEBUG: VideoInfoScanner: No (new) information was found in dir F:\TV Series\XIII (2011)\
  642. 14:27:41 T:1968 M:1970683904   DEBUG: VideoInfoScanner: Skipping dir 'N:\Movies\' due to no change
  643. 14:27:41 T:1968 M:1970683904   DEBUG: VideoInfoScanner: Skipping dir 'N:\Movies\13 Assassins (2010)\' due to no change (fasthash)
  644. 14:27:41 T:1968 M:1970683904   DEBUG: VideoInfoScanner: Skipping dir 'N:\Movies\13 Hours (2011)\' due to no change (fasthash)
  645. 14:27:41 T:1968 M:1970683904   DEBUG: VideoInfoScanner: Skipping dir 'N:\Movies\51 (2011)\' due to no change (fasthash)
  646. 14:27:41 T:1968 M:1970683904   DEBUG: VideoInfoScanner: Skipping dir 'N:\Movies\71  Into the Fire (2010)\' due to no change (fasthash)
  647. 14:27:41 T:1968 M:1970683904   DEBUG: VideoInfoScanner: Skipping dir 'N:\Movies\Age of Heroes (2011)\' due to no change (fasthash)
  648. 14:27:41 T:1968 M:1970683904   DEBUG: VideoInfoScanner: Skipping dir 'N:\Movies\Age of the Dragons (2011)\' due to no change (fasthash)
  649. 14:27:41 T:1968 M:1970683904   DEBUG: VideoInfoScanner: Skipping dir 'N:\Movies\Alice in Wonderland (2010)\' due to no change (fasthash)
  650. 14:27:41 T:1968 M:1970683904   DEBUG: VideoInfoScanner: Skipping dir 'N:\Movies\And Soon the Darkness (2010)\' due to no change (fasthash)
  651. 14:27:41 T:1968 M:1970683904   DEBUG: VideoInfoScanner: Skipping dir 'N:\Movies\Arctic Blast (2010)\' due to no change (fasthash)
  652. 14:27:41 T:1968 M:1970683904   DEBUG: VideoInfoScanner: Skipping dir 'N:\Movies\Avatar\' due to no change (fasthash)
  653. 14:27:41 T:1968 M:1970683904   DEBUG: VideoInfoScanner: Skipping dir 'N:\Movies\Bad Santa\' due to no change (fasthash)
  654. 14:27:41 T:1968 M:1970683904   DEBUG: VideoInfoScanner: Skipping dir 'N:\Movies\Ballistica (2009)\' due to no change (fasthash)
  655. 14:27:41 T:1968 M:1970683904   DEBUG: VideoInfoScanner: Skipping dir 'N:\Movies\Banlieue 13\' due to no change (fasthash)
  656. 14:27:42 T:1968 M:1970683904   DEBUG: VideoInfoScanner: Skipping dir 'N:\Movies\Banlieue 13 - Ultimatum\' due to no change (fasthash)
  657. 14:27:42 T:1968 M:1970683904   DEBUG: VideoInfoScanner: Skipping dir 'N:\Movies\Battle Los Angeles (2011)\' due to no change (fasthash)
  658. 14:27:42 T:1968 M:1970683904   DEBUG: VideoInfoScanner: Skipping dir 'N:\Movies\Battle of Los Angeles (2011)\' due to no change (fasthash)
  659. 14:27:42 T:1968 M:1970683904   DEBUG: VideoInfoScanner: Skipping dir 'N:\Movies\Beauty and the Beast (2010)\' due to no change (fasthash)
  660. 14:27:42 T:1968 M:1970683904   DEBUG: VideoInfoScanner: Skipping dir 'N:\Movies\Bellamy (2009)\' due to no change (fasthash)
  661. 14:27:42 T:1968 M:1970683904   DEBUG: VideoInfoScanner: Skipping dir 'N:\Movies\Black Death (2010)\' due to no change (fasthash)
  662. 14:27:42 T:1968 M:1970683904   DEBUG: VideoInfoScanner: Skipping dir 'N:\Movies\Blood Out (2011)\' due to no change (fasthash)
  663. 14:27:42 T:1968 M:1970683904   DEBUG: VideoInfoScanner: Skipping dir 'N:\Movies\Blooded (2011)\' due to no change (fasthash)
  664. 14:27:42 T:1968 M:1970683904   DEBUG: VideoInfoScanner: Skipping dir 'N:\Movies\Bloodrayne  The Third Reich (2010)\' due to no change (fasthash)
  665. 14:27:42 T:1968 M:1970683904   DEBUG: VideoInfoScanner: Skipping dir 'N:\Movies\Brest Fortress (2010)\' due to no change (fasthash)
  666. 14:27:42 T:1968 M:1970683904   DEBUG: VideoInfoScanner: Skipping dir 'N:\Movies\Brotherhood of the Wolf (2001)\' due to no change (fasthash)
  667. 14:27:42 T:1968 M:1970683904   DEBUG: VideoInfoScanner: Skipping dir 'N:\Movies\Buried\' due to no change (fasthash)
  668. 14:27:42 T:1968 M:1970683904   DEBUG: VideoInfoScanner: Skipping dir 'N:\Movies\Crimson Rivers 2\' due to no change (fasthash)
  669. 14:27:42 T:1968 M:1970683904   DEBUG: VideoInfoScanner: Skipping dir 'N:\Movies\Cross (2011)\' due to no change (fasthash)
  670. 14:27:42 T:1968 M:1970683904   DEBUG: VideoInfoScanner: Skipping dir 'N:\Movies\D2 The Mighty Ducks (1994)\' due to no change (fasthash)
  671. 14:27:42 T:1968 M:1970683904   DEBUG: VideoInfoScanner: Skipping dir 'N:\Movies\D3 The Mighty Ducks (1996)\' due to no change (fasthash)
  672. 14:27:42 T:1968 M:1970683904   DEBUG: VideoInfoScanner: Skipping dir 'N:\Movies\Dark Island (2010)\' due to no change (fasthash)
  673. 14:27:42 T:1968 M:1970683904   DEBUG: VideoInfoScanner: Skipping dir 'N:\Movies\Dark Nature (2009)\' due to no change (fasthash)
  674. 14:27:42 T:1968 M:1970683904   DEBUG: VideoInfoScanner: Skipping dir 'N:\Movies\Dead Snow (2009)\' due to no change (fasthash)
  675. 14:27:42 T:1968 M:1970683904   DEBUG: VideoInfoScanner: Skipping dir 'N:\Movies\Deadfall Trail\' due to no change (fasthash)
  676. 14:27:42 T:1968 M:1970683904   DEBUG: VideoInfoScanner: Skipping dir 'N:\Movies\Death Hunter (2010)\' due to no change (fasthash)
  677. 14:27:42 T:1968 M:1970683904   DEBUG: VideoInfoScanner: Skipping dir 'N:\Movies\Death Race 2\' due to no change (fasthash)
  678. 14:27:42 T:1968 M:1970683904   DEBUG: VideoInfoScanner: Skipping dir 'N:\Movies\Dossier K (2009)\' due to no change (fasthash)
  679. 14:27:42 T:1968 M:1970683904   DEBUG: VideoInfoScanner: Skipping dir 'N:\Movies\Downstream\' due to no change
  680. 14:27:42 T:1968 M:1970683904   DEBUG: VideoInfoScanner: Skipping dir 'N:\Movies\Due Date (2010)\' due to no change (fasthash)
  681. 14:27:42 T:1968 M:1970683904   DEBUG: VideoInfoScanner: Skipping dir 'N:\Movies\Eden Log (2007)\' due to no change (fasthash)
  682. 14:27:42 T:1968 M:1970683904   DEBUG: VideoInfoScanner: Skipping dir 'N:\Movies\Edinburgh Tattoo (2009)\' due to no change
  683. 14:27:42 T:1968 M:1970683904   DEBUG: VideoInfoScanner: Skipping dir 'N:\Movies\Elephant White (2011)\' due to no change (fasthash)
  684. 14:27:42 T:1968 M:1970683904   DEBUG: VideoInfoScanner: Skipping dir 'N:\Movies\Elite Squad 2 (2010)\' due to no change (fasthash)
  685. 14:27:42 T:1968 M:1970683904   DEBUG: VideoInfoScanner: Skipping dir 'N:\Movies\Enter the Void (2009)\' due to no change (fasthash)
  686. 14:27:42 T:1968 M:1970683904   DEBUG: VideoInfoScanner: Skipping dir 'N:\Movies\Essential Killing (2010)\' due to no change (fasthash)
  687. 14:27:42 T:1968 M:1970683904   DEBUG: VideoInfoScanner: Skipping dir 'N:\Movies\F.A.L.T.U (2011)\' due to no change (fasthash)
  688. 14:27:42 T:1968 M:1970683904   DEBUG: VideoInfoScanner: Skipping dir 'N:\Movies\Fading of the Cries (2011)\' due to no change (fasthash)
  689. 14:27:42 T:1968 M:1970683904   DEBUG: VideoInfoScanner: Skipping dir 'N:\Movies\Fast and Furious\' due to no change (fasthash)
  690. 14:27:42 T:1968 M:1970683904   DEBUG: VideoInfoScanner: Skipping dir 'N:\Movies\Faster\' due to no change (fasthash)
  691. 14:27:42 T:1968 M:1970683904   DEBUG: VideoInfoScanner: Skipping dir 'N:\Movies\Fâsuto sukuwaddo\' due to no change (fasthash)
  692. 14:27:42 T:1968 M:1970683904   DEBUG: VideoInfoScanner: Skipping dir 'N:\Movies\Final Sale (2011)\' due to no change (fasthash)
  693. 14:27:42 T:1968 M:1970683904   DEBUG: VideoInfoScanner: Skipping dir 'N:\Movies\Fitful (2011)\' due to no change (fasthash)
  694. 14:27:42 T:1968 M:1970683904   DEBUG: VideoInfoScanner: Skipping dir 'N:\Movies\Friends with Money (2006)\' due to no change (fasthash)
  695. 14:27:42 T:1968 M:1970683904   DEBUG: VideoInfoScanner: Skipping dir 'N:\Movies\From Time To Time (2009)\' due to no change (fasthash)
  696. 14:27:42 T:1968 M:1970683904   DEBUG: VideoInfoScanner: Skipping dir 'N:\Movies\Game of Death (2010)\' due to no change (fasthash)
  697. 14:27:42 T:1968 M:1970683904   DEBUG: VideoInfoScanner: Skipping dir 'N:\Movies\Gulivers Travels (2010)\' due to no change (fasthash)
  698. 14:27:42 T:1968 M:1970683904   DEBUG: VideoInfoScanner: Skipping dir 'N:\Movies\Haunters (2010)\' due to no change (fasthash)
  699. 14:27:42 T:1968 M:1970683904   DEBUG: VideoInfoScanner: Skipping dir 'N:\Movies\Hunt to Kill (2010)\' due to no change (fasthash)
  700. 14:27:42 T:1968 M:1970683904   DEBUG: VideoInfoScanner: Skipping dir 'N:\Movies\Hunter Prey (2010)\' due to no change (fasthash)
  701. 14:27:42 T:1968 M:1970683904   DEBUG: VideoInfoScanner: Skipping dir 'N:\Movies\Hyenas (2011)\' due to no change (fasthash)
  702. 14:27:42 T:1968 M:1970683904   DEBUG: VideoInfoScanner: Skipping dir 'N:\Movies\I Am Number Four (2011)\' due to no change (fasthash)
  703. 14:27:42 T:1968 M:1970683904   DEBUG: VideoInfoScanner: Skipping dir 'N:\Movies\I Saw the Devil\' due to no change (fasthash)
  704. 14:27:42 T:1968 M:1970683904   DEBUG: VideoInfoScanner: Skipping dir 'N:\Movies\In the Name of the King, A Dungeon Siege Tale (2007)\' due to no change (fasthash)
  705. 14:27:42 T:1968 M:1970683904   DEBUG: VideoInfoScanner: Skipping dir 'N:\Movies\Inalienable\' due to no change (fasthash)
  706. 14:27:42 T:1968 M:1970683904   DEBUG: VideoInfoScanner: Skipping dir 'N:\Movies\Infection - The Invasion Begins (2010)\' due to no change (fasthash)
  707. 14:27:42 T:1968 M:1970683904   DEBUG: VideoInfoScanner: Skipping dir 'N:\Movies\Insidious (2010\' due to no change (fasthash)
  708. 14:27:42 T:1968 M:1970524160   DEBUG: VideoInfoScanner: Skipping dir 'N:\Movies\Jack and the Beanstalk\' due to no change (fasthash)
  709. 14:27:42 T:1968 M:1970577408   DEBUG: VideoInfoScanner: Skipping dir 'N:\Movies\Jack Falls (2011)\' due to no change (fasthash)
  710. 14:27:42 T:1968 M:1970577408   DEBUG: VideoInfoScanner: Skipping dir 'N:\Movies\Jageun yeonmot\' due to no change (fasthash)
  711. 14:27:42 T:1968 M:1970577408   DEBUG: VideoInfoScanner: Skipping dir 'N:\Movies\Joanna (2010)\' due to no change (fasthash)
  712. 14:27:42 T:1968 M:1970577408   DEBUG: VideoInfoScanner: Skipping dir 'N:\Movies\Kajinek\' due to no change (fasthash)
  713. 14:27:42 T:1968 M:1970577408   DEBUG: VideoInfoScanner: Skipping dir 'N:\Movies\Khelein Hum Jee Jaan Sey (2010)\' due to no change (fasthash)
  714. 14:27:42 T:1968 M:1970577408   DEBUG: VideoInfoScanner: Skipping dir 'N:\Movies\Kill Speed (2010)\' due to no change (fasthash)
  715. 14:27:42 T:1968 M:1970577408   DEBUG: VideoInfoScanner: Skipping dir 'N:\Movies\Krzysztof\' due to no change (fasthash)
  716. 14:27:42 T:1968 M:1970577408   DEBUG: VideoInfoScanner: Skipping dir 'N:\Movies\La soga (2009)\' due to no change (fasthash)
  717. 14:27:42 T:1968 M:1970577408   DEBUG: VideoInfoScanner: Skipping dir 'N:\Movies\Lebanon (2009)\' due to no change (fasthash)
  718. 14:27:42 T:1968 M:1970577408   DEBUG: VideoInfoScanner: Skipping dir 'N:\Movies\Legion The Final Exorcism\' due to no change (fasthash)
  719. 14:27:42 T:1968 M:1970577408   DEBUG: VideoInfoScanner: Skipping dir 'N:\Movies\Life as We Know It (2010)\' due to no change
  720. 14:27:42 T:1968 M:1970577408   DEBUG: VideoInfoScanner: Skipping dir 'N:\Movies\Limitless (2011)\' due to no change (fasthash)
  721. 14:27:42 T:1968 M:1970577408   DEBUG: VideoInfoScanner: Skipping dir 'N:\Movies\Lost Boys, The Thirst\' due to no change (fasthash)
  722. 14:27:42 T:1968 M:1970577408   DEBUG: VideoInfoScanner: Skipping dir 'N:\Movies\Made in Dagenham (2010)\' due to no change (fasthash)
  723. 14:27:42 T:1968 M:1970577408   DEBUG: VideoInfoScanner: Skipping dir 'N:\Movies\Man Of Vendetta\' due to no change (fasthash)
  724. 14:27:42 T:1968 M:1970577408   DEBUG: VideoInfoScanner: Skipping dir 'N:\Movies\Mickey Blue Eyes (1999)\' due to no change (fasthash)
  725. 14:27:42 T:1968 M:1970577408   DEBUG: VideoInfoScanner: Skipping dir 'N:\Movies\Minuteman (2011)\' due to no change (fasthash)
  726. 14:27:42 T:1968 M:1970577408   DEBUG: VideoInfoScanner: Skipping dir 'N:\Movies\Misery (1990)\' due to no change (fasthash)
  727. 14:27:42 T:1968 M:1970688000   DEBUG: VideoInfoScanner: Skipping dir 'N:\Movies\Monsterwolf\' due to no change (fasthash)
  728. 14:27:42 T:1968 M:1970577408   DEBUG: VideoInfoScanner: Skipping dir 'N:\Movies\Moss (2010)\' due to no change (fasthash)
  729. 14:27:42 T:1968 M:1970577408   DEBUG: VideoInfoScanner: Skipping dir 'N:\Movies\My Soul to Take (2010)\' due to no change (fasthash)
  730. 14:27:42 T:1968 M:1970577408   DEBUG: VideoInfoScanner: Skipping dir 'N:\Movies\Mystification (2010)\' due to no change (fasthash)
  731. 14:27:42 T:1968 M:1970577408   DEBUG: VideoInfoScanner: Skipping dir 'N:\Movies\Needle (2010)\' due to no change (fasthash)
  732. 14:27:42 T:1968 M:1970577408   DEBUG: VideoInfoScanner: Skipping dir 'N:\Movies\New Kids Turbo (2010)\' due to no change (fasthash)
  733. 14:27:42 T:1968 M:1970577408   DEBUG: VideoInfoScanner: Skipping dir 'N:\Movies\Nokas (2010)\' due to no change (fasthash)
  734. 14:27:42 T:1968 M:1970577408   DEBUG: VideoInfoScanner: Skipping dir 'N:\Movies\Of Gods and Men (2010)\' due to no change (fasthash)
  735. 14:27:42 T:1968 M:1970577408   DEBUG: VideoInfoScanner: Skipping dir 'N:\Movies\Opstandelsen (2010)\' due to no change (fasthash)
  736. 14:27:42 T:1968 M:1970577408   DEBUG: VideoInfoScanner: Skipping dir 'N:\Movies\Orcs! (2011)\' due to no change (fasthash)
  737. 14:27:42 T:1968 M:1970577408   DEBUG: VideoInfoScanner: Skipping dir 'N:\Movies\Outcast (2010)\' due to no change (fasthash)
  738. 14:27:42 T:1968 M:1970577408   DEBUG: VideoInfoScanner: Skipping dir 'N:\Movies\Outrage (2010)\' due to no change (fasthash)
  739. 14:27:42 T:1968 M:1970577408   DEBUG: VideoInfoScanner: Skipping dir 'N:\Movies\Pelt (2010)\' due to no change (fasthash)
  740. 14:27:42 T:1968 M:1970577408   DEBUG: VideoInfoScanner: Skipping dir 'N:\Movies\Picture Perfect (1997)\' due to no change (fasthash)
  741. 14:27:42 T:1968 M:1970577408   DEBUG: VideoInfoScanner: Skipping dir 'N:\Movies\Priest (2011)\' due to no change (fasthash)
  742. 14:27:42 T:1968 M:1970577408   DEBUG: VideoInfoScanner: Skipping dir 'N:\Movies\Prowl\' due to no change (fasthash)
  743. 14:27:42 T:1968 M:1970577408   DEBUG: VideoInfoScanner: Skipping dir 'N:\Movies\Red (2010)\' due to no change (fasthash)
  744. 14:27:42 T:1968 M:1970577408   DEBUG: VideoInfoScanner: Skipping dir 'N:\Movies\Red Eagle (2010)\' due to no change (fasthash)
  745. 14:27:42 T:1968 M:1970577408   DEBUG: VideoInfoScanner: Skipping dir 'N:\Movies\Red Faction Origins\' due to no change (fasthash)
  746. 14:27:42 T:1968 M:1970577408   DEBUG: VideoInfoScanner: Skipping dir 'N:\Movies\Red Riding Hood (2011)\' due to no change (fasthash)
  747. 14:27:42 T:1968 M:1970577408   DEBUG: VideoInfoScanner: Skipping dir 'N:\Movies\Reign of Assassins (2010)\' due to no change (fasthash)
  748. 14:27:42 T:1968 M:1970577408   DEBUG: VideoInfoScanner: Skipping dir 'N:\Movies\River Of Darkness (2010)\' due to no change (fasthash)
  749. 14:27:42 T:1968 M:1970577408   DEBUG: VideoInfoScanner: Skipping dir 'N:\Movies\Round Ireland With a Fridge (2010)\' due to no change (fasthash)
  750. 14:27:42 T:1968 M:1970577408   DEBUG: VideoInfoScanner: Skipping dir 'N:\Movies\S.W.A.T.  Firefight\' due to no change (fasthash)
  751. 14:27:42 T:1968 M:1970577408   DEBUG: VideoInfoScanner: Skipping dir 'N:\Movies\Salvage (2010)\' due to no change (fasthash)
  752. 14:27:42 T:1968 M:1970577408   DEBUG: VideoInfoScanner: Skipping dir 'N:\Movies\Sanctum\' due to no change (fasthash)
  753. 14:27:42 T:1968 M:1970577408   DEBUG: VideoInfoScanner: Skipping dir 'N:\Movies\Season of the Witch (2011)\' due to no change (fasthash)
  754. 14:27:42 T:1968 M:1970577408   DEBUG: VideoInfoScanner: Skipping dir 'N:\Movies\Shadows in Paradise (2010)\' due to no change (fasthash)
  755. 14:27:42 T:1968 M:1970577408   DEBUG: VideoInfoScanner: Skipping dir 'N:\Movies\Shagird (2011)\' due to no change (fasthash)
  756. 14:27:42 T:1968 M:1970577408   DEBUG: VideoInfoScanner: Skipping dir 'N:\Movies\Shaolin (2011)\' due to no change (fasthash)
  757. 14:27:42 T:1968 M:1970577408   DEBUG: VideoInfoScanner: Skipping dir 'N:\Movies\Sharktopus\' due to no change (fasthash)
  758. 14:27:42 T:1968 M:1970577408   DEBUG: VideoInfoScanner: Skipping dir 'N:\Movies\Sinbad and the Minotaur (2010)\' due to no change (fasthash)
  759. 14:27:42 T:1968 M:1970577408   DEBUG: VideoInfoScanner: Skipping dir 'N:\Movies\Smokin' Aces 2 - The Assassin's Ball\' due to no change (fasthash)
  760. 14:27:42 T:1968 M:1970577408   DEBUG: VideoInfoScanner: Skipping dir 'N:\Movies\Source Code (2011)\' due to no change (fasthash)
  761. 14:27:42 T:1968 M:1970577408   DEBUG: VideoInfoScanner: Skipping dir 'N:\Movies\Strigoi (2009)\' due to no change (fasthash)
  762. 14:27:42 T:1968 M:1970577408   DEBUG: VideoInfoScanner: Skipping dir 'N:\Movies\Tacho (2011)\' due to no change (fasthash)
  763. 14:27:42 T:1968 M:1970577408   DEBUG: VideoInfoScanner: Skipping dir 'N:\Movies\Takers (2010)\' due to no change (fasthash)
  764. 14:27:42 T:1968 M:1970577408   DEBUG: VideoInfoScanner: Skipping dir 'N:\Movies\Tales of an Ancient Empire (2010)\' due to no change
  765. 14:27:42 T:1968 M:1970577408   DEBUG: VideoInfoScanner: Skipping dir 'N:\Movies\Tangled (2010)\' due to no change (fasthash)
  766. 14:27:42 T:1968 M:1970577408   DEBUG: VideoInfoScanner: Skipping dir 'N:\Movies\Temnyy mir (2010)\' due to no change
  767. 14:27:42 T:1968 M:1970577408   DEBUG: VideoInfoScanner: Skipping dir 'N:\Movies\Tetsuo, The Bullet Man (2009)\' due to no change (fasthash)
  768. 14:27:42 T:1968 M:1970577408   DEBUG: VideoInfoScanner: Skipping dir 'N:\Movies\The 7th Hunt (2009)\' due to no change (fasthash)
  769. 14:27:42 T:1968 M:1970577408   DEBUG: VideoInfoScanner: Skipping dir 'N:\Movies\The Back-up Plan (2010)\' due to no change (fasthash)
  770. 14:27:42 T:1968 M:1970577408   DEBUG: VideoInfoScanner: Skipping dir 'N:\Movies\The Blind Side (2009)\' due to no change (fasthash)
  771. 14:27:42 T:1968 M:1970577408   DEBUG: VideoInfoScanner: Skipping dir 'N:\Movies\The Boys from County Clare\' due to no change (fasthash)
  772. 14:27:42 T:1968 M:1970577408   DEBUG: VideoInfoScanner: Skipping dir 'N:\Movies\The Chronicles of Narnia- The Voyage of the Dawn Treader (2010)\' due to no change (fasthash)
  773. 14:27:42 T:1968 M:1970577408   DEBUG: VideoInfoScanner: Skipping dir 'N:\Movies\The Crimson Mask (2009)\' due to no change (fasthash)
  774. 14:27:42 T:1968 M:1970577408   DEBUG: VideoInfoScanner: Skipping dir 'N:\Movies\The Dark Lurking (2010)\' due to no change
  775. 14:27:42 T:1968 M:1970577408   DEBUG: VideoInfoScanner: Skipping dir 'N:\Movies\The Death and Life of Charlie St. Cloud (2010)\' due to no change (fasthash)
  776. 14:27:42 T:1968 M:1970577408   DEBUG: VideoInfoScanner: Skipping dir 'N:\Movies\The Dragon Pearl (2011)\' due to no change (fasthash)
  777. 14:27:42 T:1968 M:1970577408   DEBUG: VideoInfoScanner: Skipping dir 'N:\Movies\The Final (2010)\' due to no change (fasthash)
  778. 14:27:42 T:1968 M:1970577408   DEBUG: VideoInfoScanner: Skipping dir 'N:\Movies\The Forgotten Ones (2009)\' due to no change (fasthash)
  779. 14:27:42 T:1968 M:1970577408   DEBUG: VideoInfoScanner: Skipping dir 'N:\Movies\The Jensen Project\' due to no change (fasthash)
  780. 14:27:42 T:1968 M:1970577408   DEBUG: VideoInfoScanner: Skipping dir 'N:\Movies\The Lighthouse (2006)\' due to no change (fasthash)
  781. 14:27:42 T:1968 M:1970577408   DEBUG: VideoInfoScanner: Skipping dir 'N:\Movies\The Lost Bladesman (2011)\' due to no change (fasthash)
  782. 14:27:42 T:1968 M:1970577408   DEBUG: VideoInfoScanner: Skipping dir 'N:\Movies\The Lost Future\' due to no change (fasthash)
  783. 14:27:42 T:1968 M:1970577408   DEBUG: VideoInfoScanner: Skipping dir 'N:\Movies\The Man from Nowhere (2010)\' due to no change (fasthash)
  784. 14:27:42 T:1968 M:1970577408   DEBUG: VideoInfoScanner: Skipping dir 'N:\Movies\The Mechanic (2011)\' due to no change (fasthash)
  785. 14:27:42 T:1968 M:1970577408   DEBUG: VideoInfoScanner: Skipping dir 'N:\Movies\The Mighty Ducks (1992)\' due to no change (fasthash)
  786. 14:27:42 T:1968 M:1970577408   DEBUG: VideoInfoScanner: Skipping dir 'N:\Movies\The Objective  (2008)\' due to no change (fasthash)
  787. 14:27:42 T:1968 M:1970577408   DEBUG: VideoInfoScanner: Skipping dir 'N:\Movies\The Perfect Man (2005)\' due to no change (fasthash)
  788. 14:27:42 T:1968 M:1970577408   DEBUG: VideoInfoScanner: Skipping dir 'N:\Movies\The Poughkeepsie Tapes (2007)\' due to no change (fasthash)
  789. 14:27:42 T:1968 M:1970577408   DEBUG: VideoInfoScanner: Skipping dir 'N:\Movies\The Rig (2010)\' due to no change (fasthash)
  790. 14:27:42 T:1968 M:1970577408   DEBUG: VideoInfoScanner: Skipping dir 'N:\Movies\The Rite (2011)\' due to no change (fasthash)
  791. 14:27:42 T:1968 M:1970577408   DEBUG: VideoInfoScanner: Skipping dir 'N:\Movies\The Sickhouse\' due to no change (fasthash)
  792. 14:27:42 T:1968 M:1970577408   DEBUG: VideoInfoScanner: Skipping dir 'N:\Movies\The Sorcerer's Apprentice (2010)\' due to no change (fasthash)
  793. 14:27:42 T:1968 M:1970577408   DEBUG: VideoInfoScanner: Skipping dir 'N:\Movies\The Speed of Thought (2011)\' due to no change (fasthash)
  794. 14:27:42 T:1968 M:1970577408   DEBUG: VideoInfoScanner: Skipping dir 'N:\Movies\The Troll Hunter (2010)\' due to no change
  795. 14:27:42 T:1968 M:1970577408   DEBUG: VideoInfoScanner: Skipping dir 'N:\Movies\The Vanquisher (2009)\' due to no change (fasthash)
  796. 14:27:42 T:1968 M:1970577408   DEBUG: VideoInfoScanner: Skipping dir 'N:\Movies\The Warrior's Way (2010)\' due to no change (fasthash)
  797. 14:27:42 T:1968 M:1970577408   DEBUG: VideoInfoScanner: Skipping dir 'N:\Movies\The Way Back\' due to no change (fasthash)
  798. 14:27:42 T:1968 M:1970577408   DEBUG: VideoInfoScanner: Skipping dir 'N:\Movies\The Wolfman (2010)\' due to no change
  799. 14:27:42 T:1968 M:1970577408   DEBUG: VideoInfoScanner: Skipping dir 'N:\Movies\Time Traveller (2010)\' due to no change (fasthash)
  800. 14:27:42 T:1968 M:1970577408   DEBUG: VideoInfoScanner: Skipping dir 'N:\Movies\Tomorrow, When the War Began\' due to no change (fasthash)
  801. 14:27:42 T:1968 M:1970577408   DEBUG: VideoInfoScanner: Skipping dir 'N:\Movies\Tracker (2010)\' due to no change (fasthash)
  802. 14:27:42 T:1968 M:1970577408   DEBUG: VideoInfoScanner: Skipping dir 'N:\Movies\Travellers\' due to no change (fasthash)
  803. 14:27:42 T:1968 M:1970577408   DEBUG: VideoInfoScanner: Skipping dir 'N:\Movies\Tron Legacy\' due to no change (fasthash)
  804. 14:27:42 T:1968 M:1970577408   DEBUG: VideoInfoScanner: Skipping dir 'N:\Movies\Tropa de Elite\' due to no change (fasthash)
  805. 14:27:42 T:1968 M:1970577408   DEBUG: VideoInfoScanner: Skipping dir 'N:\Movies\Troubleshooter (2010)\' due to no change (fasthash)
  806. 14:27:42 T:1968 M:1970577408   DEBUG: VideoInfoScanner: Skipping dir 'N:\Movies\Ultramarines, A Warhammer 40,000 Movie\' due to no change
  807. 14:27:42 T:1968 M:1970577408   DEBUG: VideoInfoScanner: Skipping dir 'N:\Movies\Under the Mountain (2009)\' due to no change (fasthash)
  808. 14:27:42 T:1968 M:1970577408   DEBUG: VideoInfoScanner: Skipping dir 'N:\Movies\Unstoppable\' due to no change (fasthash)
  809. 14:27:42 T:1968 M:1970577408   DEBUG: VideoInfoScanner: Skipping dir 'N:\Movies\Urgency (2010)\' due to no change (fasthash)
  810. 14:27:42 T:1968 M:1970577408   DEBUG: VideoInfoScanner: Skipping dir 'N:\Movies\Valhalla Rising (2009)\' due to no change (fasthash)
  811. 14:27:42 T:1968 M:1970577408   DEBUG: VideoInfoScanner: Skipping dir 'N:\Movies\Valley of the Wolves Palestine (2011)\' due to no change (fasthash)
  812. 14:27:42 T:1968 M:1970577408   DEBUG: VideoInfoScanner: Skipping dir 'N:\Movies\Vanishing on 7th Street (2010)\' due to no change (fasthash)
  813. 14:27:42 T:1968 M:1970577408   DEBUG: VideoInfoScanner: Skipping dir 'N:\Movies\Virus X (2010)\' due to no change (fasthash)
  814. 14:27:42 T:1968 M:1970577408   DEBUG: VideoInfoScanner: Skipping dir 'N:\Movies\Volkodav iz roda Serykh Psov (2007)\' due to no change (fasthash)
  815. 14:27:42 T:1968 M:1970577408   DEBUG: VideoInfoScanner: Skipping dir 'N:\Movies\Wild Target (2010)\' due to no change (fasthash)
  816. 14:27:42 T:1968 M:1970577408   DEBUG: VideoInfoScanner: Skipping dir 'N:\Movies\Winter in Wartime (2008)\' due to no change (fasthash)
  817. 14:27:42 T:1968 M:1970577408   DEBUG: VideoInfoScanner: Skipping dir 'N:\Movies\Xi Feng Lie (2010)\' due to no change (fasthash)
  818. 14:27:42 T:1968 M:1970577408   DEBUG: VideoInfoScanner: Skipping dir 'N:\Movies\Zombie Driftwood (2010)\' due to no change
  819. 14:27:42 T:1968 M:1970577408   DEBUG: VideoInfoScanner: Skipping dir 'N:\Movies\Zone of the Dead (2009)\' due to no change
  820. 14:27:42 T:1968 M:1970577408   DEBUG: VideoInfoScanner: Skipping dir 'N:\Movies\Zwerbowana milosc (2010)\' due to no change (fasthash)
  821. 14:27:42 T:1968 M:1970581504  NOTICE: VideoInfoScanner: Finished scan. Scanning for video info took 00:02
  822. 14:27:42 T:1968 M:1970581504    INFO: Video scan was stopped or finished ... restoring FindRemoteThumbs
  823. 14:27:42 T:1968 M:1970581504   DEBUG: Thread VIDEO::CVideoInfoScanner 1968 terminating
  824. 14:27:42 T:3080 M:1970634752   DEBUG: ------ Window Deinit (DialogVideoScan.xml) ------
  825. 14:27:44 T:3716 M:1972797440   DEBUG: FileCurl::Open(0C41FAF8) http://xoap.weather.com/weather/local/UKXX0052?cc=*&unit=m&dayf=4&prod=xoap&link=xoap&par=1004124588&key=079f24145f208494
  826. 14:27:44 T:3716 M:1972772864    INFO: XCURL::DllLibCurlGlobal::easy_aquire - Created session to http://xoap.weather.com
  827. 14:27:44 T:3716 M:1972629504    INFO: WEATHER: Weather download successful
  828. 14:27:44 T:3716 M:1972621312   DEBUG: CZipManager::GetZipList - Processing zip://special%3a%2f%2fxbmc%2fmedia%2fweather%2ezip/
  829. 14:27:44 T:3080 M:1970204672    INFO: initializing python engine.
  830. 14:27:44 T:3080 M:1970204672   DEBUG: new python thread created. id=2
  831. 14:27:44 T:3080 M:1970204672   DEBUG: CGUIWindowWeather::CallScript - Weather script called: C:\Users\Eddie\AppData\Roaming\XBMC\addons\weather.weatherplus\default.py (UKXX0052)
  832. 14:27:44 T:2732 M:1970204672   DEBUG: Thread XBPyThread start, auto delete: 0
  833. 14:27:44 T:2732 M:1970204672   DEBUG: Python thread: start processing
  834. 14:27:44 T:2732 M:1969868800  NOTICE: -->Python Interpreter Initialized<--
  835. 14:27:44 T:2732 M:1969868800   DEBUG: XBPyThread::Process - The source file to load is C:\Users\Eddie\AppData\Roaming\XBMC\addons\weather.weatherplus\default.py
  836. 14:27:44 T:2732 M:1969868800   DEBUG: XBPyThread::Process - Setting the Python path to C:\Users\Eddie\AppData\Roaming\XBMC\addons\weather.weatherplus;C:\Users\Eddie\AppData\Roaming\XBMC\addons\script.module.simplejson\lib;C:\Users\Eddie\AppData\Roaming\XBMC\addons\script.module.beautifulsoup\lib;C:\Program Files\XBMC\addons\script.module.pil\lib;C:\Users\Eddie\AppData\Roaming\XBMC\addons\script.module.elementtree\lib;C:\Program Files\XBMC\addons\script.module.pysqlite\lib;C:\Program Files\XBMC\system\python\DLLs;C:\Program Files\XBMC\system\python\Lib;C:\Program Files\XBMC\python26.zip;C:\Program Files\XBMC\system\python\lib\plat-win;C:\Program Files\XBMC\system\python\lib\lib-tk;C:\Program Files\XBMC;C:\Program Files\XBMC\system\python;C:\Program Files\XBMC\system\python\lib\site-packages;
  837. 14:27:44 T:2732 M:1969868800   DEBUG: XBPyThread::Process - Entering source directory C:\Users\Eddie\AppData\Roaming\XBMC\addons\weather.weatherplus
  838. 14:27:44 T:2732 M:1969868800   DEBUG: Instantiating addon using automatically obtained id of "weather.weatherplus" dependent on version 1.0 of the xbmc.python api
  839. 14:27:44 T:2732 M:1969676288  NOTICE: [PLUGIN] 'Weather Plus: Version - 2.1.9-r' initialized!
  840. 14:27:44 T:2732 M:1969672192  NOTICE:      ** Found XBMC Revision: r0 [Unknown] **
  841. 14:27:44 T:2732 M:1969033216  NOTICE: [Weather.com+] Alternative Provider Selected : Accuweather.com Global (en-us/gb/city-of-edinburgh/edinburgh)
  842. 14:27:46 T:2732 M:1975115776  NOTICE: [Weather.com+] Area code = en-us/gb/city-of-edinburgh/edinburgh
  843. 14:27:46 T:2732 M:1975111680  NOTICE: [Weather.com+] Tonight
  844. 14:27:46 T:2732 M:1975111680  NOTICE: [Weather.com+] special://temp/weather/128x128/11.png
  845. 14:27:46 T:2732 M:1975111680  NOTICE: [Weather.com+] Mostly cloudy with a passing shower
  846. 14:27:46 T:2732 M:1975111680  NOTICE: [Weather.com+] High
  847. 14:27:46 T:2732 M:1975111680  NOTICE: [Weather.com+] -9
  848. 14:27:46 T:2732 M:1975111680  NOTICE: [Weather.com+] precip_title[0] is not available
  849. 14:27:46 T:2732 M:1975111680  NOTICE: [Weather.com+] precip_amount[0] is not available
  850. 14:27:46 T:2732 M:1975111680  NOTICE: [Weather.com+] Mostly cloudy with a passing shower
  851. 14:27:46 T:2732 M:1975111680  NOTICE: [Weather.com+] Sunset
  852. 14:27:46 T:2732 M:1975111680  NOTICE: [Weather.com+] 22:01
  853. 14:27:46 T:2732 M:1975111680  NOTICE: [Weather.com+] Tomorrow
  854. 14:27:46 T:2732 M:1975111680  NOTICE: [Weather.com+] special://temp/weather/128x128/39.png
  855. 14:27:46 T:2732 M:1975111680  NOTICE: [Weather.com+] Times of clouds and sun with a passing shower; breezy in the afternoon
  856. 14:27:46 T:2732 M:1975111680  NOTICE: [Weather.com+] Low
  857. 14:27:46 T:2732 M:1975111680  NOTICE: [Weather.com+] -12
  858. 14:27:46 T:2732 M:1975111680  NOTICE: [Weather.com+] precip_title[1] is not available
  859. 14:27:46 T:2732 M:1975111680  NOTICE: [Weather.com+] precip_amount[1] is not available
  860. 14:27:46 T:2732 M:1975111680  NOTICE: [Weather.com+] Times of clouds and sun with a passing shower; breezy in the afternoon
  861. 14:27:46 T:2732 M:1975111680  NOTICE: [Weather.com+] Sunrise
  862. 14:27:46 T:2732 M:1975111680  NOTICE: [Weather.com+] 4:25
  863. 14:27:46 T:2732 M:1975111680  NOTICE: [Weather.com+] Tomorrow Night
  864. 14:27:46 T:2732 M:1975111680  NOTICE: [Weather.com+] special://temp/weather/128x128/27.png
  865. 14:27:46 T:2732 M:1975111680  NOTICE: [Weather.com+] Partly cloudy
  866. 14:27:46 T:2732 M:1975111680  NOTICE: [Weather.com+] High
  867. 14:27:46 T:2732 M:1975111680  NOTICE: [Weather.com+] -8
  868. 14:27:46 T:2732 M:1975111680  NOTICE: [Weather.com+] precip_title[2] is not available
  869. 14:27:46 T:2732 M:1975111680  NOTICE: [Weather.com+] precip_amount[2] is not available
  870. 14:27:46 T:2732 M:1975111680  NOTICE: [Weather.com+] Partly cloudy
  871. 14:27:46 T:2732 M:1975111680  NOTICE: [Weather.com+] Sunset
  872. 14:27:46 T:2732 M:1975111680  NOTICE: [Weather.com+] 22:02
  873. 14:27:46 T:2732 M:1975107584  NOTICE: [Weather.com+] Weather Video =
  874. 14:27:46 T:2732 M:1975107584  NOTICE: [Weather.com+] Local Video =
  875. 14:27:46 T:2732 M:1975463936  NOTICE: [('Saturday', '6/18/2011', 'special://temp/weather/128x128/12.png', 'Occasional rain and drizzle', '16', '10', 'N/A', 'N/A', 'N/A', 'N/A'), ('Sunday', '6/19/2011', 'special://temp/weather/128x128/39.png', 'Times of clouds and sun with a passing shower; breezy in the afternoon', '17', '9', 'N/A', 'N/A', 'N/A', 'N/A'), ('Monday', '6/20/2011', 'special://temp/weather/128x128/39.png', 'Sunshine and some clouds with a shower', '18', '11', 'N/A', 'N/A', 'N/A', 'N/A'), ('Tuesday', '6/21/2011', 'special://temp/weather/128x128/12.png', 'Breezy with times of rain', '15', '11', 'N/A', 'N/A', 'N/A', 'N/A'), ('Wednesday', '6/22/2011', 'special://temp/weather/128x128/11.png', 'Mostly cloudy with a couple of showers', '14', '10', 'N/A', 'N/A', 'N/A', 'N/A'), ('Thursday', '6/23/2011', 'special://temp/weather/128x128/28.png', 'Partly sunny with a shower', '15', '7', 'N/A', 'N/A', 'N/A', 'N/A'), ('Friday', '6/24/2011', 'special://temp/weather/128x128/12.png', 'Periods of rain', '16', '9', 'N/A', 'N/A', 'N/A', 'N/A'), ('Saturday', '6/25/2011', 'special://temp/weather/128x128/12.png', 'Rain', '14', '9', 'N/A', 'N/A', 'N/A', 'N/A'), ('Sunday', '6/26/2011', 'special://temp/weather/128x128/12.png', 'Warmer with rain', '20', '11', 'N/A', 'N/A', 'N/A', 'N/A'), ('Monday', '6/27/2011', 'special://temp/weather/128x128/11.png', 'Mostly cloudy with showers', '19', '12', 'N/A', 'N/A', 'N/A', 'N/A'), ('Tuesday', '6/28/2011', 'special://temp/weather/128x128/12.png', 'Rain', '18', '9', 'N/A', 'N/A', 'N/A', 'N/A'), ('Wednesday', '6/29/2011', 'special://temp/weather/128x128/12.png', 'Rain', '18', '10', 'N/A', 'N/A', 'N/A', 'N/A'), ('Thursday', '6/30/2011', 'special://temp/weather/128x128/11.png', 'Plenty of clouds with a couple of showers', '18', '8', 'N/A', 'N/A', 'N/A', 'N/A'), ('Friday', '7/1/2011', 'special://temp/weather/128x128/12.png', 'Rain', '17', '8', 'N/A', 'N/A', 'N/A', 'N/A')]
  876. 14:27:46 T:2732 M:1974738944    INFO: Scriptresult: Success
  877. 14:27:46 T:2732 M:1974833152    INFO: Python script stopped
  878. 14:27:46 T:2732 M:1974833152   DEBUG: Thread Python Thread 2732 terminating
  879. 14:27:46 T:3080 M:1974878208   DEBUG: waiting for python thread 2 to stop
  880. 14:27:46 T:3080 M:1974878208   DEBUG: python thread 2 destructed
  881. 14:27:50 T:3080 M:1976164352   DEBUG: CWinEventsWin32::WndProcWindow is active
  882. 14:27:56 T:3080 M:1957998592    INFO: Python, unloading python shared library because no scripts are running anymore
  883. 14:28:03 T:3080 M:1977884672   DEBUG: CApplication::ExecuteXBMCAction : Translating ActivateWindow(Weather)
  884. 14:28:03 T:3080 M:1977884672   DEBUG: CApplication::ExecuteXBMCAction : To ActivateWindow(Weather)
  885. 14:28:03 T:3080 M:1977884672   DEBUG: Activating window ID: 12600
  886. 14:28:03 T:3080 M:1977884672   DEBUG: ------ Window Deinit (Home.xml) ------
  887. 14:28:04 T:3080 M:1977516032    INFO: XCURL::DllLibCurlGlobal::easy_aquire - Created session to http://www.google.com
  888. 14:28:04 T:3080 M:1977540608   DEBUG: ------ Window Init (MyWeather.xml) ------
  889. 14:28:04 T:3080 M:1977540608    INFO: Loading skin file: MyWeather.xml
  890. 14:28:04 T:3080 M:1977450496   ERROR: Control 6000 in window 12600 has been asked to focus, but it can't
  891. 14:28:15 T:3080 M:1954889728   ERROR: Previous line repeats 1 times.
  892. 14:28:15 T:3080 M:1954889728    INFO: XCURL::DllLibCurlGlobal::CheckIdle - Closing session to http://xoap.weather.com (easy=0098FBF8, multi=0062D578)
  893. 14:28:25 T:3080 M:1981382656   DEBUG: CGUIWindowManager::PreviousWindow: Deactivate
  894. 14:28:25 T:3080 M:1981382656   DEBUG: ------ Window Deinit (MyWeather.xml) ------
  895. 14:28:25 T:3080 M:1982439424   DEBUG: CGUIWindowManager::PreviousWindow: Activate new
  896. 14:28:25 T:3080 M:1982439424   DEBUG: ------ Window Init (Home.xml) ------
  897. 14:28:25 T:3080 M:1982439424    INFO: Loading skin file: Home.xml
  898. 14:28:29 T:3080 M:1985323008   DEBUG: CApplication::ExecuteXBMCAction : Translating ActivateWindow(ShutdownMenu)
  899. 14:28:29 T:3080 M:1985323008   DEBUG: CApplication::ExecuteXBMCAction : To ActivateWindow(ShutdownMenu)
  900. 14:28:29 T:3080 M:1985323008   DEBUG: Activating window ID: 10111
  901. 14:28:29 T:3080 M:1985323008   DEBUG: ------ Window Init (DialogButtonMenu.xml) ------
  902. 14:28:29 T:3080 M:1985323008    INFO: Loading skin file: DialogButtonMenu.xml
  903. 14:28:34 T:3832 M:1944330240   DEBUG: Thread Jobworker 3832 terminating (autodelete)
  904. 14:28:34 T:3080 M:1948692480   DEBUG: ------ Window Deinit (DialogButtonMenu.xml) ------
  905. 14:28:34 T:3080 M:1949720576    INFO: XCURL::DllLibCurlGlobal::CheckIdle - Closing session to http://www.google.com (easy=009B1858, multi=00000000)
  906. 14:28:38 T:3080 M:1961590784   DEBUG: CApplication::ExecuteXBMCAction : Translating ActivateWindow(Settings)
  907. 14:28:38 T:3080 M:1961590784   DEBUG: CApplication::ExecuteXBMCAction : To ActivateWindow(Settings)
  908. 14:28:38 T:3080 M:1961590784   DEBUG: Activating window ID: 10004
  909. 14:28:38 T:3080 M:1961590784   DEBUG: ------ Window Deinit (Home.xml) ------
  910. 14:28:38 T:3080 M:1961549824   DEBUG: ------ Window Init (Settings.xml) ------
  911. 14:28:38 T:3080 M:1961549824    INFO: Loading skin file: Settings.xml
  912. 14:28:41 T:3080 M:1966776320   DEBUG: CApplication::ExecuteXBMCAction : Translating ActivateWindow(SystemSettings)
  913. 14:28:41 T:3080 M:1966776320   DEBUG: CApplication::ExecuteXBMCAction : To ActivateWindow(SystemSettings)
  914. 14:28:41 T:3080 M:1966776320   DEBUG: Activating window ID: 10016
  915. 14:28:41 T:3080 M:1966776320   DEBUG: ------ Window Deinit (Settings.xml) ------
  916. 14:28:41 T:3080 M:1967046656   DEBUG: ------ Window Init (SettingsCategory.xml) ------
  917. 14:28:41 T:3080 M:1967046656    INFO: Loading skin file: SettingsCategory.xml
  918. 14:28:41 T:3080 M:1967034368   ERROR: Window Translator: Can't find window tvsettings
  919. 14:28:41 T:3080 M:1967034368   ERROR: Error evaluating boolean expression Window.IsVisible(TVSettings) + ![Player.HasVideo + Skin.HasSetting(VideoBackgrounds)]
  920. 14:28:41 T:3080 M:1967034368   ERROR: Window Translator: Can't find window tv
  921. 14:28:41 T:3080 M:1967030272   ERROR: Error evaluating boolean expression Window.IsVisible(TV) + [Control.IsVisible(11) | Control.IsVisible(12) | Control.IsVisible(13)] + Skin.HasSetting(FanartShort)
  922. 14:28:41 T:3080 M:1967030272   ERROR: Window Translator: Can't find window tv
  923. 14:28:41 T:3080 M:1967030272   ERROR: Error evaluating boolean expression Window.IsVisible(TV) + [Control.IsVisible(11) | Control.IsVisible(12) | Control.IsVisible(13)] + Skin.HasSetting(FanartLong)
  924. 14:28:41 T:3080 M:1967030272   ERROR: Window Translator: Can't find window tv
  925. 14:28:41 T:3080 M:1967030272   ERROR: Error evaluating boolean expression Window.IsVisible(TV) + Control.IsVisible(10)
  926. 14:28:43 T:3080 M:1962471424   DEBUG: CWin32WASAPI::EnumerateAudioSinks: found endpoint device: Digital Audio (HDMI) (2- High Definition Audio Device)
  927. 14:28:43 T:3080 M:1962463232   DEBUG: CWin32WASAPI::EnumerateAudioSinks: found endpoint device: SAMSUNG-1 (NVIDIA High Definition Audio)
  928. 14:28:43 T:3080 M:1962463232   DEBUG: CWin32WASAPI::EnumerateAudioSinks: found endpoint device: Digital Audio (S/PDIF) (2- High Definition Audio Device)
  929. 14:28:43 T:3080 M:1962463232   DEBUG: CWin32WASAPI::EnumerateAudioSinks: found endpoint device: Speakers (2- High Definition Audio Device)
  930. 14:28:46 T:3080 M:1963573248  NOTICE: Disabled debug logging due to GUI setting. Level 0.
  931. 14:28:46 T:3080 M:1963573248  NOTICE: Log level changed to 0
  932. 14:28:54 T:3080 M:1967845376  NOTICE: Storing total System Uptime
  933. 14:28:54 T:3080 M:1967845376  NOTICE: Saving settings
  934. 14:28:54 T:3080 M:1967759360  NOTICE: stop all
  935. 14:28:54 T:3080 M:1967759360  NOTICE: ES: Stopping event server
  936. 14:28:55 T:1836 M:1968160768  NOTICE: ES: UDP Event server stopped
  937. 14:28:55 T:3080 M:1968181248  NOTICE: stop sap announcement listener
  938. 14:28:55 T:3080 M:1968177152  NOTICE: clean cached files!
  939. 14:28:55 T:3080 M:1968168960  NOTICE: unload skin
  940. 14:28:55 T:3080 M:1976344576  NOTICE: stop python
  941. 14:28:55 T:3080 M:2018770944  NOTICE: stopped
  942. 14:28:55 T:3080 M:2018955264  NOTICE: destroy
  943. 14:28:55 T:3080 M:2019356672  NOTICE: unload sections
  944. 14:28:56 T:3080 M:2022391808  NOTICE: destroy
  945. 14:28:56 T:3080 M:2022391808 WARNING: Attempted to remove window 10013 from the window manager when it didn't exist
  946. 14:28:56 T:3080 M:2022391808 WARNING: Attempted to remove window 10014 from the window manager when it didn't exist
  947. 14:28:56 T:3080 M:2022391808 WARNING: Attempted to remove window 10015 from the window manager when it didn't exist
  948. 14:28:56 T:3080 M:2022391808 WARNING: Attempted to remove window 10016 from the window manager when it didn't exist
  949. 14:28:56 T:3080 M:2022391808 WARNING: Attempted to remove window 10017 from the window manager when it didn't exist
  950. 14:28:56 T:3080 M:2022391808 WARNING: Attempted to remove window 10018 from the window manager when it didn't exist
  951. 14:28:56 T:3080 M:2022391808 WARNING: Attempted to remove window 10019 from the window manager when it didn't exist
  952. 14:28:56 T:3080 M:2022391808 WARNING: Attempted to remove window 10107 from the window manager when it didn't exist
  953. 14:28:56 T:3080 M:2022391808 WARNING: Attempted to remove window 10115 from the window manager when it didn't exist
  954. 14:28:56 T:3080 M:2022391808 WARNING: Attempted to remove window 10104 from the window manager when it didn't exist
  955. 14:28:56 T:3080 M:2022391808  NOTICE: unload sections
  956. 14:28:56 T:3080 M:2022379520  NOTICE: application stopped...